Provisional Data: Trout Brook near McGraw, NY


Please select a monitoring station.
Please select start date.
Please select start date.

Toggle Unit: C/F Toggle Unit: C/F
Sample Time Temperature (C) Temperature (F) Specific Conductivity (mS/cm) pH   Turbidity (NTU+) DO (mg/L)
6/29/2021 12:00:00 AM 0 32 0 7.98 1.57 6.91
6/29/2021 12:15:00 AM 0 32 0 7.97 1.73 6.93
6/29/2021 12:30:00 AM 0 32 0 7.97 1.49 6.94
6/29/2021 12:45:00 AM 0 32 0 7.96 1.94 6.95
6/29/2021 1:00:00 AM 0 32 0 7.96 1.99 6.97
6/29/2021 1:15:00 AM 0 32 0 7.96 1.64 6.98
6/29/2021 1:30:00 AM 0 32 0 7.96 1.64 7
6/29/2021 1:45:00 AM 0 32 0 7.96 1.71 7.03
6/29/2021 2:00:00 AM 0 32 0 7.96 1.63 7.03
6/29/2021 2:15:00 AM 0 32 0 7.96 1.83 7.05
6/29/2021 2:30:00 AM 0 32 0 7.95 1.76 7.06
6/29/2021 2:45:00 AM 0 32 0 7.95 1.71 7.07
6/29/2021 3:00:00 AM 0 32 0 7.95 1.82 7.09
6/29/2021 3:15:00 AM 0 32 0 7.94 1.79 7.09
6/29/2021 3:30:00 AM 0 32 0 7.94 1.77 7.11
6/29/2021 3:45:00 AM 0 32 0 7.94 1.69 7.12
6/29/2021 4:00:00 AM 0 32 0 7.94 1.8 7.14
6/29/2021 4:15:00 AM 0 32 0 7.94 1.76 7.15
6/29/2021 4:30:00 AM 0 32 0 7.94 1.8 7.16
6/29/2021 4:45:00 AM 0 32 0 7.93 1.91 7.18
6/29/2021 5:00:00 AM 0 32 0 7.93 1.81 7.18
6/29/2021 5:15:00 AM 0 32 0 7.93 1.73 7.22
6/29/2021 5:30:00 AM 0 32 0 7.93 1.76 7.24
6/29/2021 5:45:00 AM 0 32 0 7.94 1.63 7.32
6/29/2021 6:00:00 AM 0 32 0 7.95 1.58 7.44
6/29/2021 6:15:00 AM 0 32 0 7.97 1.49 7.58
6/29/2021 6:30:00 AM 0 32 0 7.99 1.42 7.72
6/29/2021 6:45:00 AM 0 32 0 8.03 1.36 7.91
6/29/2021 7:00:00 AM 0 32 0 8.08 1.42 8.17
6/29/2021 7:15:00 AM 0 32 0 8.15 1.35 8.41
6/29/2021 7:30:00 AM 0 32 0 8.2 1.33 8.59
6/29/2021 7:45:00 AM 0 32 0 8.25 1.36 8.74
6/29/2021 8:00:00 AM 0 32 0 8.3 1.56 8.89
6/29/2021 8:15:00 AM 0 32 0 8.37 1.32 9.02
6/29/2021 8:30:00 AM 0 32 0 8.42 1.39 9.13
6/29/2021 8:45:00 AM 0 32 0 8.48 1.39 9.25
6/29/2021 9:00:00 AM 0 32 0 8.54 1.35 9.34
6/29/2021 9:15:00 AM 0 32 0 8.6 1.36 9.44
6/29/2021 9:30:00 AM 0 32 0 8.65 1.39 9.5
6/29/2021 9:45:00 AM 0 32 0 8.72 1.64 9.57
6/29/2021 10:00:00 AM 0 32 0 8.78 1.47 9.64
6/29/2021 10:15:00 AM 0 32 0 8.83 1.48 9.68
6/29/2021 10:30:00 AM 0 32 0 8.89 1.43 9.72
6/29/2021 10:45:00 AM 0 32 0 8.94 1.6 9.75
6/29/2021 11:00:00 AM 0 32 0 8.99 1.49 9.71
6/29/2021 11:15:00 AM 0 32 0 9.02 1.42 9.63
6/29/2021 11:30:00 AM 0 32 0 9.05 1.47 9.66
6/29/2021 11:45:00 AM 0 32 0 9.03 1.43 9.51
6/29/2021 12:00:00 PM 0 32 0 9.06 1.45 9.48
6/29/2021 12:15:00 PM 0 32 0 9.11 1.38 9.55
6/29/2021 12:30:00 PM 0 32 0 9.09 1.37 9.35
6/29/2021 12:45:00 PM 0 32 0 9.11 1.33 9.51
6/29/2021 1:00:00 PM 0 32 0 9.16 1.5 9.51
6/29/2021 1:15:00 PM 0 32 0 9.16 1.4 9.45
6/29/2021 1:30:00 PM 0 32 0 9.16 2.85 9.35
6/29/2021 1:45:00 PM 0 32 0 9.19 1.39 9.44
6/29/2021 2:00:00 PM 0 32 0 9.21 1.36 9.42
6/29/2021 2:15:00 PM 0 32 0 9.18 1.33 9.13
6/29/2021 2:30:00 PM 0 32 0 9.19 1.39 9.24
6/29/2021 2:45:00 PM 0 32 0 9.2 1.35 9.11
6/29/2021 3:00:00 PM 0 32 0 9.2 1.67 9.14
6/29/2021 3:15:00 PM 0 32 0 9.2 1.37 9.02
6/29/2021 3:30:00 PM 0 32 0 9.15 1.3 8.75
6/29/2021 3:45:00 PM 0 32 0 9.15 1.34 8.8
6/29/2021 4:00:00 PM 0 32 0 9.16 1.32 8.8
6/29/2021 4:15:00 PM 0 32 0 9.11 1.65 8.68
6/29/2021 4:30:00 PM 0 32 0 9.09 1.36 8.58
6/29/2021 4:45:00 PM 0 32 0 8.96 1.36 8.12
6/29/2021 5:00:00 PM 0 32 0 8.95 1.32 8.41
6/29/2021 5:15:00 PM 0 32 0 8.98 1.41 8.5
6/29/2021 5:30:00 PM 0 32 0 8.96 1.28 8.37
6/29/2021 5:45:00 PM 0 32 0 8.89 1.22 8.21
6/29/2021 6:00:00 PM 0 32 0 8.82 1.21 8.1
6/29/2021 6:15:00 PM 0 32 0 8.65 1.17 7.62
6/29/2021 6:30:00 PM 0 32 0 8.52 1.27 7.42
6/29/2021 6:45:00 PM 0 32 0 8.41 1.25 7.23
6/29/2021 7:00:00 PM 0 32 0 8.35 1.35 7.17
6/29/2021 7:15:00 PM 0 32 0 8.31 1.2 7.27
6/29/2021 7:30:00 PM 0 32 0 8.27 1.16 7.26
6/29/2021 7:45:00 PM 0 32 0 8.18 1.14 7.01
6/29/2021 8:00:00 PM 0 32 0 8.11 1.21 6.89
6/29/2021 8:15:00 PM 0 32 0 8.05 1.17 6.81
6/29/2021 8:30:00 PM 0 32 0 8.01 1.2 6.77
6/29/2021 8:45:00 PM 0 32 0 7.98 1.34 6.72
6/29/2021 9:00:00 PM 0 32 0 7.96 1.41 6.69
6/29/2021 9:15:00 PM 0 32 0 7.94 1.4 6.66
6/29/2021 9:30:00 PM 0 32 0 7.92 1.57 6.67
6/29/2021 9:45:00 PM 0 32 0 7.91 1.47 6.64
6/29/2021 10:00:00 PM 0 32 0 7.91 1.46 6.65
6/29/2021 10:15:00 PM 0 32 0 7.9 1.48 6.66
6/29/2021 10:30:00 PM 0 32 0 7.9 1.61 6.66
6/29/2021 10:45:00 PM 0 32 0 7.9 1.5 6.66
6/29/2021 11:00:00 PM 0 32 0 7.91 1.58 6.68
6/29/2021 11:15:00 PM 0 32 0 7.91 1.57 6.7
6/29/2021 11:30:00 PM 0 32 0 7.9 1.47 6.71
6/29/2021 11:45:00 PM 0 32 0 7.91 1.46 6.75
6/30/2021 12:00:00 AM 0 32 0 7.9 2.55 6.76
6/30/2021 12:15:00 AM 0 32 0 7.9 1.56 6.76
6/30/2021 12:30:00 AM 0 32 0 7.9 1.5 6.77
6/30/2021 12:45:00 AM 0 32 0 7.9 1.62 6.8
6/30/2021 1:00:00 AM 0 32 0 7.9 1.53 6.83
6/30/2021 1:15:00 AM 0 32 0 7.9 1.5 6.84
6/30/2021 1:30:00 AM 0 32 0 7.91 1.55 6.86
6/30/2021 1:45:00 AM 0 32 0 7.91 1.61 6.88
6/30/2021 2:00:00 AM 0 32 0 7.91 1.57 6.91
6/30/2021 2:15:00 AM 0 32 0 7.91 1.65 6.92
6/30/2021 2:30:00 AM 0 32 0 7.91 1.63 6.92
6/30/2021 2:45:00 AM 0 32 0 7.91 1.57 6.9
6/30/2021 3:00:00 AM 0 32 0 7.91 1.6 6.93
6/30/2021 3:15:00 AM 0 32 0 7.91 1.66 6.94
6/30/2021 3:30:00 AM 0 32 0 7.9 1.73 6.92
6/30/2021 3:45:00 AM 0 32 0 7.86 1.62 6.93
6/30/2021 4:00:00 AM 0 32 0 7.85 1.7 6.96
6/30/2021 4:15:00 AM 0 32 0 7.85 1.92 6.97
6/30/2021 4:30:00 AM 0 32 0 7.86 1.75 6.96
6/30/2021 4:45:00 AM 0 32 0 7.85 1.81 6.95
6/30/2021 5:00:00 AM 0 32 0 7.85 1.77 6.96
6/30/2021 5:15:00 AM 0 32 0 7.87 1.75 6.99
6/30/2021 5:30:00 AM 0 32 0 7.88 1.69 7.01
6/30/2021 5:45:00 AM 0 32 0 7.89 1.51 7.07
6/30/2021 6:00:00 AM 0 32 0 7.91 1.65 7.16
6/30/2021 6:15:00 AM 0 32 0 7.92 1.37 7.27
6/30/2021 6:30:00 AM 0 32 0 7.94 1.4 7.38
6/30/2021 6:45:00 AM 0 32 0 7.98 1.38 7.6
6/30/2021 7:00:00 AM 0 32 0 8.04 1.45 7.9
6/30/2021 7:15:00 AM 0 32 0 8.11 1.37 8.23
6/30/2021 7:30:00 AM 0 32 0 8.16 1.36 8.41
6/30/2021 7:45:00 AM 0 32 0 8.22 1.29 8.56
6/30/2021 8:00:00 AM 0 32 0 8.27 1.29 8.72
6/30/2021 8:15:00 AM 0 32 0 8.33 1.42 8.86
6/30/2021 8:30:00 AM 0 32 0 8.37 1.35 8.96
6/30/2021 8:45:00 AM 0 32 0 8.43 1.6 9.1
6/30/2021 9:00:00 AM 0 32 0 8.51 1.39 9.27
6/30/2021 9:15:00 AM 0 32 0 8.55 1.43 9.31
6/30/2021 9:30:00 AM 0 32 0 8.64 1.34 9.5
6/30/2021 9:45:00 AM 0 32 0 8.69 1.46 9.56
6/30/2021 10:00:00 AM 0 32 0 8.77 1.42 9.68
6/30/2021 10:15:00 AM 0 32 0 8.82 1.51 9.73
6/30/2021 10:30:00 AM 0 32 0 8.86 1.92 9.66
6/30/2021 10:45:00 AM 0 32 0 8.88 1.37 9.67
6/30/2021 11:00:00 AM 0 32 0 8.92 1.48 9.7
6/30/2021 11:15:00 AM 0 32 0 8.95 1.44 9.77
6/30/2021 11:30:00 AM 0 32 0 9 1.33 9.84
6/30/2021 11:45:00 AM 0 32 0 9.02 1.62 9.75
6/30/2021 12:00:00 PM 0 32 0 9.04 1.56 9.72
6/30/2021 12:15:00 PM 0 32 0 9.03 1.37 9.5
6/30/2021 12:30:00 PM 0 32 0 9.03 1.48 9.52
6/30/2021 12:45:00 PM 0 32 0 9.07 1.44 9.7
6/30/2021 1:00:00 PM 0 32 0 9.08 1.37 9.64
6/30/2021 1:15:00 PM 0 32 0 9.09 1.37 9.67
6/30/2021 1:30:00 PM 0 32 0 9.07 1.64 9.57
6/30/2021 1:45:00 PM 0 32 0 9.11 1.34 9.77
6/30/2021 2:00:00 PM 0 32 0 9.15 1.34 9.67
6/30/2021 2:15:00 PM 0 32 0 9.16 1.3 9.66
6/30/2021 2:30:00 PM 0 32 0 9.18 1.4 9.65
6/30/2021 2:45:00 PM 0 32 0 9.17 1.28 9.34
6/30/2021 3:00:00 PM 0 32 0 9.17 1.34 9.49
6/30/2021 3:15:00 PM 0 32 0 9.16 1.41 9.18
6/30/2021 3:30:00 PM 0 32 0 8.95 1.32 8.13
6/30/2021 3:45:00 PM 0 32 0 8.69 3.45 7.71
6/30/2021 4:00:00 PM 0 32 0 8.6 5.05 7.64
6/30/2021 4:15:00 PM 0 32 0 8.15 46.49 7.58
6/30/2021 4:30:00 PM 0 32 0 8.07 47.86 7.56
6/30/2021 4:45:00 PM 0 32 0 8.12 35.39 7.54
6/30/2021 5:00:00 PM 0 32 0 8.16 30 7.7
6/30/2021 5:15:00 PM 0 32 0 8.18 26.39 7.75
6/30/2021 5:30:00 PM 0 32 0 8.23 20.09 7.87
6/30/2021 5:45:00 PM 0 32 0 8.33 18.11 8.17
6/30/2021 6:00:00 PM 0 32 0 8.35 10.09 8.14
6/30/2021 6:15:00 PM 0 32 0 8.28 7.15 8
6/30/2021 6:30:00 PM 0 32 0 8.2 6.08 7.82
6/30/2021 6:45:00 PM 0 32 0 8.15 5.49 7.74
6/30/2021 7:00:00 PM 0 32 0 8.12 6.06 7.64
6/30/2021 7:15:00 PM 0 32 0 8.06 7.33 7.53
6/30/2021 7:30:00 PM 0 32 0 8.04 7.28 7.51
6/30/2021 7:45:00 PM 0 32 0 8.02 7.77 7.44
6/30/2021 8:00:00 PM 0 32 0 7.98 8.58 7.27
6/30/2021 8:15:00 PM 0 32 0 7.96 8.78 7.21
6/30/2021 8:30:00 PM 0 32 0 7.95 9.29 7.19
6/30/2021 8:45:00 PM 0 32 0 7.94 7.69 7.13
6/30/2021 9:00:00 PM 0 32 0 7.93 6.75 7.1
6/30/2021 9:15:00 PM 0 32 0 7.92 5.65 7.1
6/30/2021 9:30:00 PM 0 32 0 7.92 5.16 7.1
6/30/2021 9:45:00 PM 0 32 0 7.92 5.91 7.11
6/30/2021 10:00:00 PM 0 32 0 7.92 4.72 7.12
6/30/2021 10:15:00 PM 0 32 0 7.91 4.39 7.14
6/30/2021 10:30:00 PM 0 32 0 7.92 4.98 7.15
6/30/2021 10:45:00 PM 0 32 0 7.92 4.83 7.15
6/30/2021 11:00:00 PM 0 32 0 7.92 4.55 7.17
6/30/2021 11:15:00 PM 0 32 0 7.91 4.86 7.16
6/30/2021 11:30:00 PM 0 32 0 7.91 4.63 7.16
6/30/2021 11:45:00 PM 0 32 0 7.91 4.48 7.17
7/1/2021 12:00:00 AM 0 32 0 7.91 4.25 7.18
7/1/2021 12:15:00 AM 0 32 0 7.91 3.93 7.18
7/1/2021 12:30:00 AM 0 32 0 7.91 3.78 7.2
7/1/2021 12:45:00 AM 0 32 0 7.91 3.5 7.2
7/1/2021 1:00:00 AM 0 32 0 7.91 3.39 7.22
7/1/2021 1:15:00 AM 0 32 0 7.9 3.24 7.22
7/1/2021 1:30:00 AM 0 32 0 7.9 3.55 7.23
7/1/2021 1:45:00 AM 0 32 0 7.9 3.22 7.23
7/1/2021 2:00:00 AM 0 32 0 7.9 3.25 7.24
7/1/2021 2:15:00 AM 0 32 0 7.9 3.05 7.26
7/1/2021 2:30:00 AM 0 32 0 7.91 2.97 7.25
7/1/2021 2:45:00 AM 0 32 0 7.91 2.94 7.25
7/1/2021 3:00:00 AM 0 32 0 7.9 2.9 7.26
7/1/2021 3:15:00 AM 0 32 0 7.9 5.77 7.27
7/1/2021 3:30:00 AM 0 32 0 7.89 3.04 7.27
7/1/2021 3:45:00 AM 0 32 0 7.89 2.91 7.28
7/1/2021 4:00:00 AM 0 32 0 7.89 2.83 7.28
7/1/2021 4:15:00 AM 0 32 0 7.89 3.04 7.29
7/1/2021 4:30:00 AM 0 32 0 7.88 2.9 7.28
7/1/2021 4:45:00 AM 0 32 0 7.88 2.81 7.27
7/1/2021 5:00:00 AM 0 32 0 7.88 16.82 7.28
7/1/2021 5:15:00 AM 0 32 0 7.88 3.03 7.29
7/1/2021 5:30:00 AM 0 32 0 7.88 2.86 7.31
7/1/2021 5:45:00 AM 0 32 0 7.87 2.6 7.32
7/1/2021 6:00:00 AM 0 32 0 7.88 3.08 7.36
7/1/2021 6:15:00 AM 0 32 0 7.88 2.47 7.38
7/1/2021 6:30:00 AM 0 32 0 7.89 2.44 7.42
7/1/2021 6:45:00 AM 0 32 0 7.91 2.15 7.51
7/1/2021 7:00:00 AM 0 32 0 7.91 2.13 7.51
7/1/2021 7:15:00 AM 0 32 0 7.93 1.94 7.64
7/1/2021 7:30:00 AM 0 32 0 7.97 1.94 7.83
7/1/2021 7:45:00 AM 0 32 0 8.04 2 8.11
7/1/2021 8:00:00 AM 0 32 0 8.07 1.76 8.18
7/1/2021 8:15:00 AM 0 32 0 8.1 1.77 8.31
7/1/2021 8:30:00 AM 0 32 0 8.19 1.85 8.57
7/1/2021 8:45:00 AM 0 32 0 8.27 1.75 8.84
7/1/2021 9:00:00 AM 0 32 0 8.35 1.7 9.03
7/1/2021 9:15:00 AM 0 32 0 8.39 1.68 9.04
7/1/2021 9:30:00 AM 0 32 0 8.44 1.72 9.18
7/1/2021 9:45:00 AM 0 32 0 8.5 1.68 9.3
7/1/2021 10:00:00 AM 0 32 0 8.51 1.66 9.24
7/1/2021 10:15:00 AM 0 32 0 8.54 1.65 9.27
7/1/2021 10:30:00 AM 0 32 0 8.5 1.65 9.03
7/1/2021 10:45:00 AM 0 32 0 8.55 1.66 9.22
7/1/2021 11:00:00 AM 0 32 0 8.6 1.57 9.35
7/1/2021 11:15:00 AM 0 32 0 8.63 1.58 9.44
7/1/2021 11:30:00 AM 0 32 0 8.67 1.55 9.56
7/1/2021 11:45:00 AM 0 32 0 8.7 1.56 9.63
7/1/2021 12:00:00 PM 0 32 0 8.74 1.49 9.7
7/1/2021 12:15:00 PM 0 32 0 8.8 1.58 9.87
7/1/2021 12:30:00 PM 0 32 0 8.82 1.52 9.77
7/1/2021 12:45:00 PM 0 32 0 8.81 1.55 9.69
7/1/2021 1:00:00 PM 0 32 0 8.87 1.54 9.93
7/1/2021 1:15:00 PM 0 32 0 8.9 1.58 9.95
7/1/2021 1:30:00 PM 0 32 0 8.93 1.47 10
7/1/2021 1:45:00 PM 0 32 0 8.94 1.53 9.95
7/1/2021 2:00:00 PM 0 32 0 8.91 1.54 9.73
7/1/2021 2:15:00 PM 0 32 0 8.89 1.53 9.66
7/1/2021 2:30:00 PM 0 32 0 8.86 1.56 9.43
7/1/2021 2:45:00 PM 0 32 0 8.76 1.54 9.03
7/1/2021 3:00:00 PM 0 32 0 8.64 1.51 8.72
7/1/2021 3:15:00 PM 0 32 0 8.69 1.58 9.08
7/1/2021 3:30:00 PM 0 32 0 8.73 1.47 9.27
7/1/2021 3:45:00 PM 0 32 0 8.59 1.4 8.76
7/1/2021 4:00:00 PM 0 32 0 8.34 1.43 8.1
7/1/2021 4:15:00 PM 0 32 0 8.3 1.5 8.23
7/1/2021 4:30:00 PM 0 32 0 8.32 1.58 8.4
7/1/2021 4:45:00 PM 0 32 0 8.29 1.88 8.31
7/1/2021 5:00:00 PM 0 32 0 8.19 2.02 8.18
7/1/2021 5:15:00 PM 0 32 0 8.15 3.76 8.12
7/1/2021 5:30:00 PM 0 32 0 8.2 5.11 8.38
7/1/2021 5:45:00 PM 0 32 0 8.21 5.1 8.38
7/1/2021 6:00:00 PM 0 32 0 8.19 4.1 8.28
7/1/2021 6:15:00 PM 0 32 0 8.22 3.39 8.37
7/1/2021 6:30:00 PM 0 32 0 8.23 2.85 8.38
7/1/2021 6:45:00 PM 0 32 0 8.21 2.33 8.31
7/1/2021 7:00:00 PM 0 32 0 8.18 2.11 8.19
7/1/2021 7:15:00 PM 0 32 0 8.14 2.02 8.05
7/1/2021 7:30:00 PM 0 32 0 8.12 1.77 8.03
7/1/2021 7:45:00 PM 0 32 0 8.08 1.7 7.87
7/1/2021 8:00:00 PM 0 32 0 8.01 1.7 7.7
7/1/2021 8:15:00 PM 0 32 0 7.98 1.72 7.6
7/1/2021 8:30:00 PM 0 32 0 7.97 1.72 7.57
7/1/2021 8:45:00 PM 0 32 0 7.94 1.71 7.53
7/1/2021 9:00:00 PM 0 32 0 7.92 1.72 7.49
7/1/2021 9:15:00 PM 0 32 0 7.9 2.12 7.47
7/1/2021 9:30:00 PM 0 32 0 7.9 2.29 7.46
7/1/2021 9:45:00 PM 0 32 0 7.89 2.21 7.46
7/1/2021 10:00:00 PM 0 32 0 7.88 2.21 7.46
7/1/2021 10:15:00 PM 0 32 0 7.88 2.28 7.47
7/1/2021 10:30:00 PM 0 32 0 7.87 2.27 7.48
7/1/2021 10:45:00 PM 0 32 0 7.87 2.3 7.5
7/1/2021 11:00:00 PM 0 32 0 7.88 2.33 7.52
7/1/2021 11:15:00 PM 0 32 0 7.87 2.41 7.53
7/1/2021 11:30:00 PM 0 32 0 7.87 2.37 7.55
7/1/2021 11:45:00 PM 0 32 0 7.87 2.8 7.56
7/2/2021 12:00:00 AM 0 32 0 7.87 2.3 7.57
7/2/2021 12:15:00 AM 0 32 0 7.87 2.35 7.57
7/2/2021 12:30:00 AM 0 32 0 7.86 2.47 7.58
7/2/2021 12:45:00 AM 0 32 0 7.86 2.38 7.6
7/2/2021 1:00:00 AM 0 32 0 7.86 2.39 7.6
7/2/2021 1:15:00 AM 0 32 0 7.86 4.17 7.6
7/2/2021 1:30:00 AM 0 32 0 7.86 2.38 7.6
7/2/2021 1:45:00 AM 0 32 0 7.86 2.4 7.61
7/2/2021 2:00:00 AM 0 32 0 7.85 2.36 7.61
7/2/2021 2:15:00 AM 0 32 0 7.84 2.48 7.62
7/2/2021 2:30:00 AM 0 32 0 7.84 2.55 7.61
7/2/2021 2:45:00 AM 0 32 0 7.85 2.51 7.63
7/2/2021 3:00:00 AM 0 32 0 7.84 2.34 7.63
7/2/2021 3:15:00 AM 0 32 0 7.85 2.31 7.63
7/2/2021 3:30:00 AM 0 32 0 7.85 2.23 7.63
7/2/2021 3:45:00 AM 0 32 0 7.85 2.39 7.65
7/2/2021 4:00:00 AM 0 32 0 7.89 2.84 7.91
7/2/2021 4:15:00 AM 0 32 0 7.85 6.36 8.1
7/2/2021 4:30:00 AM 0 32 0 7.82 81.7 8.22
7/2/2021 4:45:00 AM 0 32 0 7.73 81.5 8.27
7/2/2021 5:00:00 AM 0 32 0 7.7 53.34 8.16
7/2/2021 5:15:00 AM 0 32 0 7.7 43.99 8.06
7/2/2021 5:30:00 AM 0 32 0 7.72 34.58 8.01
7/2/2021 5:45:00 AM 0 32 0 7.75 20.43 8.01
7/2/2021 6:00:00 AM 0 32 0 7.8 15.91 8.07
7/2/2021 6:15:00 AM 0 32 0 7.8 32.01 8.11
7/2/2021 6:30:00 AM 0 32 0 7.81 36.07 8.17
7/2/2021 6:45:00 AM 0 32 0 7.84 37.32 8.2
7/2/2021 7:00:00 AM 0 32 0 7.86 36.75 8.26
7/2/2021 7:15:00 AM 0 32 0 7.87 31.15 8.31
7/2/2021 7:30:00 AM 0 32 0 7.89 22.1 8.36
7/2/2021 7:45:00 AM 0 32 0 7.92 17.89 8.45
7/2/2021 8:00:00 AM 0 32 0 7.95 15.47 8.51
7/2/2021 8:15:00 AM 0 32 0 8 18.62 8.68
7/2/2021 8:30:00 AM 0 32 0 8.04 21.16 8.71
7/2/2021 8:45:00 AM 0 32 0 8.05 18.58 8.74
7/2/2021 9:00:00 AM 0 32 0 8.1 14.27 8.89
7/2/2021 9:15:00 AM 0 32 0 8.11 11.88 8.81
7/2/2021 9:30:00 AM 0 32 0 8.1 10.62 8.83
7/2/2021 9:45:00 AM 0 32 0 8.14 9.75 8.91
7/2/2021 10:00:00 AM 0 32 0 8.13 8.13 8.86
7/2/2021 10:15:00 AM 0 32 0 8.27 8.03 9.19
7/2/2021 10:30:00 AM 0 32 0 8.35 8.12 9.35
7/2/2021 10:45:00 AM 0 32 0 8.37 8.53 9.32
7/2/2021 11:00:00 AM 0 32 0 8.4 8.97 9.39
7/2/2021 11:15:00 AM 0 32 0 8.39 9.28 9.27
7/2/2021 11:30:00 AM 0 32 0 8.38 9.63 9.22
7/2/2021 11:45:00 AM 0 32 0 8.42 9.15 9.38
7/2/2021 12:00:00 PM 0 32 0 8.5 8.68 9.37
7/2/2021 12:15:00 PM 0 32 0 8.52 8 9.39
7/2/2021 12:30:00 PM 0 32 0 8.55 7.55 9.45
7/2/2021 12:45:00 PM 0 32 0 8.44 7.47 9.05
7/2/2021 1:00:00 PM 0 32 0 8.48 6.65 9.25
7/2/2021 1:15:00 PM 0 32 0 8.46 5.92 9.23
7/2/2021 1:30:00 PM 0 32 0 8.47 5.44 9.28
7/2/2021 1:45:00 PM 0 32 0 8.49 5.31 9.28
7/2/2021 2:00:00 PM 0 32 0 8.46 4.8 9.12
7/2/2021 2:15:00 PM 0 32 0 8.42 4.62 8.97
7/2/2021 2:30:00 PM 0 32 0 8.36 4 8.79
7/2/2021 2:45:00 PM 0 32 0 8.36 4.15 8.96
7/2/2021 3:00:00 PM 0 32 0 8.51 3.66 9.24
7/2/2021 3:15:00 PM 0 32 0 8.55 3.83 9.31
7/2/2021 3:30:00 PM 0 32 0 8.59 3.89 9.38
7/2/2021 3:45:00 PM 0 32 0 8.62 5.14 9.41
7/2/2021 4:00:00 PM 0 32 0 8.63 4.91 9.37
7/2/2021 4:15:00 PM 0 32 0 8.63 4.28 9.34
7/2/2021 4:30:00 PM 0 32 0 8.6 3.63 9.16
7/2/2021 4:45:00 PM 0 32 0 8.54 3.37 9.02
7/2/2021 5:00:00 PM 0 32 0 8.52 3.32 8.96
7/2/2021 5:15:00 PM 0 32 0 8.56 3.05 9.11
7/2/2021 5:30:00 PM 0 32 0 8.53 2.95 8.95
7/2/2021 5:45:00 PM 0 32 0 8.46 2.91 8.75
7/2/2021 6:00:00 PM 0 32 0 8.46 2.8 8.84
7/2/2021 6:15:00 PM 0 32 0 8.45 2.85 8.85
7/2/2021 6:30:00 PM 0 32 0 8.38 2.74 8.68
7/2/2021 6:45:00 PM 0 32 0 8.33 2.7 8.63
7/2/2021 7:00:00 PM 0 32 0 8.28 2.59 8.56
7/2/2021 7:15:00 PM 0 32 0 8.19 2.53 8.41
7/2/2021 7:30:00 PM 0 32 0 8.14 2.48 8.35
7/2/2021 7:45:00 PM 0 32 0 8.09 2.46 8.24
7/2/2021 8:00:00 PM 0 32 0 8.03 2.49 8.14
7/2/2021 8:15:00 PM 0 32 0 8 2.37 8.07
7/2/2021 8:30:00 PM 0 32 0 7.95 2.36 7.9
7/2/2021 8:45:00 PM 0 32 0 7.91 2.48 7.8
7/2/2021 9:00:00 PM 0 32 0 7.87 2.63 7.73
7/2/2021 9:15:00 PM 0 32 0 7.85 2.93 7.71
7/2/2021 9:30:00 PM 0 32 0 7.85 4.53 7.77
7/2/2021 9:45:00 PM 0 32 0 7.81 8.46 7.78
7/2/2021 10:00:00 PM 0 32 0 7.77 12.23 7.71
7/2/2021 10:15:00 PM 0 32 0 7.77 10.23 7.66
7/2/2021 10:30:00 PM 0 32 0 7.76 8.43 7.66
7/2/2021 10:45:00 PM 0 32 0 7.76 7.1 7.67
7/2/2021 11:00:00 PM 0 32 0 7.77 5.88 7.69
7/2/2021 11:15:00 PM 0 32 0 7.78 4.97 7.73
7/2/2021 11:30:00 PM 0 32 0 7.79 4.38 7.76
7/2/2021 11:45:00 PM 0 32 0 7.79 4.26 7.81
7/3/2021 12:00:00 AM 0 32 0 7.79 4.44 7.81
7/3/2021 12:15:00 AM 0 32 0 7.8 4.31 7.84
7/3/2021 12:30:00 AM 0 32 0 7.8 4.37 7.86
7/3/2021 12:45:00 AM 0 32 0 7.8 4.67 7.87
7/3/2021 1:00:00 AM 0 32 0 7.81 4.77 7.9
7/3/2021 1:15:00 AM 0 32 0 7.81 4.7 7.9
7/3/2021 1:30:00 AM 0 32 0 7.8 4.55 7.91
7/3/2021 1:45:00 AM 0 32 0 7.8 4.64 7.91
7/3/2021 2:00:00 AM 0 32 0 7.79 4.29 7.91
7/3/2021 2:15:00 AM 0 32 0 7.8 4.12 7.92
7/3/2021 2:30:00 AM 0 32 0 7.8 4.07 7.93
7/3/2021 2:45:00 AM 0 32 0 7.8 3.96 7.93
7/3/2021 3:00:00 AM 0 32 0 7.8 3.9 7.97
7/3/2021 3:15:00 AM 0 32 0 7.79 3.55 7.97
7/3/2021 3:30:00 AM 0 32 0 7.79 3.77 7.99
7/3/2021 3:45:00 AM 0 32 0 7.79 3.9 7.99
7/3/2021 4:00:00 AM 0 32 0 7.78 3.99 7.95
7/3/2021 4:15:00 AM 0 32 0 7.77 4.05 7.94
7/3/2021 4:30:00 AM 0 32 0 7.78 3.94 7.94
7/3/2021 4:45:00 AM 0 32 0 7.78 3.89 7.95
7/3/2021 5:00:00 AM 0 32 0 7.79 3.91 8
7/3/2021 5:15:00 AM 0 32 0 7.79 3.7 8.01
7/3/2021 5:30:00 AM 0 32 0 7.78 3.8 8.05
7/3/2021 5:45:00 AM 0 32 0 7.79 3.53 8.06
7/3/2021 6:00:00 AM 0 32 0 7.8 3.51 8.12
7/3/2021 6:15:00 AM 0 32 0 7.83 3.3 8.26
7/3/2021 6:30:00 AM 0 32 0 7.86 3.33 8.31
7/3/2021 6:45:00 AM 0 32 0 7.86 3.13 8.33
7/3/2021 7:00:00 AM 0 32 0 7.88 3.08 8.42
7/3/2021 7:15:00 AM 0 32 0 7.9 3.08 8.5
7/3/2021 7:30:00 AM 0 32 0 7.94 3.1 8.67
7/3/2021 7:45:00 AM 0 32 0 8.01 3.29 8.9
7/3/2021 8:00:00 AM 0 32 0 8.11 3.3 9.2
7/3/2021 8:15:00 AM 0 32 0 8.21 3.62 9.42
7/3/2021 8:30:00 AM 0 32 0 8.28 3.62 9.5
7/3/2021 8:45:00 AM 0 32 0 8.27 3.64 9.38
7/3/2021 9:00:00 AM 0 32 0 8.26 3.45 9.41
7/3/2021 9:15:00 AM 0 32 0 8.28 3.32 9.42
7/3/2021 9:30:00 AM 0 32 0 8.25 3.18 9.29
7/3/2021 9:45:00 AM 0 32 0 8.33 3.24 9.53
7/3/2021 10:00:00 AM 0 32 0 8.33 3.14 9.44
7/3/2021 10:15:00 AM 0 32 0 8.36 2.93 9.6
7/3/2021 10:30:00 AM 0 32 0 8.4 2.91 9.63
7/3/2021 10:45:00 AM 0 32 0 8.44 2.86 9.72
7/3/2021 11:00:00 AM 0 32 0 8.46 2.79 9.69
7/3/2021 11:15:00 AM 0 32 0 8.48 2.63 9.67
7/3/2021 11:30:00 AM 0 32 0 8.51 2.71 9.79
7/3/2021 11:45:00 AM 0 32 0 8.53 2.57 9.75
7/3/2021 12:00:00 PM 0 32 0 8.54 2.53 9.63
7/3/2021 12:15:00 PM 0 32 0 8.54 2.49 9.63
7/3/2021 12:30:00 PM 0 32 0 8.53 2.52 9.64
7/3/2021 12:45:00 PM 0 32 0 8.58 2.32 9.7
7/3/2021 1:00:00 PM 0 32 0 8.59 2.3 9.71
7/3/2021 1:15:00 PM 0 32 0 8.63 2.35 9.81
7/3/2021 1:30:00 PM 0 32 0 8.65 2.3 9.81
7/3/2021 1:45:00 PM 0 32 0 8.69 2.36 9.95
7/3/2021 2:00:00 PM 0 32 0 8.75 2.31 10
7/3/2021 2:15:00 PM 0 32 0 8.78 2.35 10.03
7/3/2021 2:30:00 PM 0 32 0 8.75 2.32 9.85
7/3/2021 2:45:00 PM 0 32 0 8.74 2.24 9.85
7/3/2021 3:00:00 PM 0 32 0 8.75 2.17 9.83
7/3/2021 3:15:00 PM 0 32 0 8.72 2.18 9.61
7/3/2021 3:30:00 PM 0 32 0 8.72 2.16 9.72
7/3/2021 3:45:00 PM 0 32 0 8.66 2.2 9.39
7/3/2021 4:00:00 PM 0 32 0 8.67 2.22 9.51
7/3/2021 4:15:00 PM 0 32 0 8.63 2.11 9.44
7/3/2021 4:30:00 PM 0 32 0 8.61 2.12 9.41
7/3/2021 4:45:00 PM 0 32 0 8.64 2.06 9.62
7/3/2021 5:00:00 PM 0 32 0 8.66 2.14 9.68
7/3/2021 5:15:00 PM 0 32 0 8.68 2.08 9.72
7/3/2021 5:30:00 PM 0 32 0 8.65 2.15 9.51
7/3/2021 5:45:00 PM 0 32 0 8.58 2 9.27
7/3/2021 6:00:00 PM 0 32 0 8.54 2.06 9.21
7/3/2021 6:15:00 PM 0 32 0 8.53 2.04 9.25
7/3/2021 6:30:00 PM 0 32 0 8.47 1.97 9.13
7/3/2021 6:45:00 PM 0 32 0 8.42 1.92 9.05
7/3/2021 7:00:00 PM 0 32 0 8.31 1.9 8.76
7/3/2021 7:15:00 PM 0 32 0 8.28 1.92 8.77
7/3/2021 7:30:00 PM 0 32 0 8.23 1.89 8.7
7/3/2021 7:45:00 PM 0 32 0 8.15 1.92 8.52
7/3/2021 8:00:00 PM 0 32 0 8.08 1.96 8.37
7/3/2021 8:15:00 PM 0 32 0 8.02 1.9 8.23
7/3/2021 8:30:00 PM 0 32 0 7.95 1.91 8.08
7/3/2021 8:45:00 PM 0 32 0 7.9 1.91 7.91
7/3/2021 9:00:00 PM 0 32 0 7.85 1.93 7.82
7/3/2021 9:15:00 PM 0 32 0 7.81 2.11 7.77
7/3/2021 9:30:00 PM 0 32 0 7.79 2.1 7.73
7/3/2021 9:45:00 PM 0 32 0 7.77 2.26 7.72
7/3/2021 10:00:00 PM 0 32 0 7.84 2.27 7.68
7/3/2021 10:15:00 PM 0 32 0 7.83 2.26 7.71
7/3/2021 10:30:00 PM 0 32 0 7.79 2.37 7.72
7/3/2021 10:45:00 PM 0 32 0 7.76 2.22 7.74
7/3/2021 11:00:00 PM 0 32 0 7.76 2.19 7.76
7/3/2021 11:15:00 PM 0 32 0 7.74 2.39 7.75
7/3/2021 11:30:00 PM 0 32 0 7.73 2.42 7.77
7/3/2021 11:45:00 PM 0 32 0 7.72 2.35 7.79
7/4/2021 12:00:00 AM 0 32 0 7.72 2.47 7.79
7/4/2021 12:15:00 AM 0 32 0 7.72 2.49 7.81
7/4/2021 12:30:00 AM 0 32 0 7.71 2.3 7.83
7/4/2021 12:45:00 AM 0 32 0 7.7 2.21 7.84
7/4/2021 1:00:00 AM 0 32 0 7.71 2.17 7.86
7/4/2021 1:15:00 AM 0 32 0 7.7 2.21 7.88
7/4/2021 1:30:00 AM 0 32 0 7.72 2.38 7.89
7/4/2021 1:45:00 AM 0 32 0 7.74 2.17 7.9
7/4/2021 2:00:00 AM 0 32 0 7.76 2.13 7.92
7/4/2021 2:15:00 AM 0 32 0 7.76 2.3 7.93
7/4/2021 2:30:00 AM 0 32 0 7.77 2.37 7.95
7/4/2021 2:45:00 AM 0 32 0 7.76 2.24 7.95
7/4/2021 3:00:00 AM 0 32 0 7.75 2.21 7.97
7/4/2021 3:15:00 AM 0 32 0 7.74 2.17 7.99
7/4/2021 3:30:00 AM 0 32 0 7.73 2.21 7.99
7/4/2021 3:45:00 AM 0 32 0 7.73 2.22 8.01
7/4/2021 4:00:00 AM 0 32 0 7.74 2.22 8.01
7/4/2021 4:15:00 AM 0 32 0 7.74 2.3 8.03
7/4/2021 4:30:00 AM 0 32 0 7.75 2.23 8.04
7/4/2021 4:45:00 AM 0 32 0 7.75 2.31 8.04
7/4/2021 5:00:00 AM 0 32 0 7.75 2.42 8.04
7/4/2021 5:15:00 AM 0 32 0 7.76 2.25 8.06
7/4/2021 5:30:00 AM 0 32 0 7.77 2.19 8.07
7/4/2021 5:45:00 AM 0 32 0 7.77 2.27 8.1
7/4/2021 6:00:00 AM 0 32 0 7.78 1.96 8.19
7/4/2021 6:15:00 AM 0 32 0 7.81 1.89 8.31
7/4/2021 6:30:00 AM 0 32 0 7.85 1.75 8.46
7/4/2021 6:45:00 AM 0 32 0 7.89 1.72 8.66
7/4/2021 7:00:00 AM 0 32 0 7.94 1.71 8.83
7/4/2021 7:15:00 AM 0 32 0 7.99 1.72 9.02
7/4/2021 7:30:00 AM 0 32 0 8.03 1.65 9.1
7/4/2021 7:45:00 AM 0 32 0 8.11 1.64 9.32
7/4/2021 8:00:00 AM 0 32 0 8.18 1.68 9.49
7/4/2021 8:15:00 AM 0 32 0 8.2 1.64 9.46
7/4/2021 8:30:00 AM 0 32 0 8.28 1.64 9.68
7/4/2021 8:45:00 AM 0 32 0 8.33 1.56 9.73
7/4/2021 9:00:00 AM 0 32 0 8.4 1.61 9.9
7/4/2021 9:15:00 AM 0 32 0 8.46 1.53 9.96
7/4/2021 9:30:00 AM 0 32 0 8.5 1.67 10.03
7/4/2021 9:45:00 AM 0 32 0 8.55 1.56 10.12
7/4/2021 10:00:00 AM 0 32 0 8.6 1.48 10.18
7/4/2021 10:15:00 AM 0 32 0 8.64 1.57 10.27
7/4/2021 10:30:00 AM 0 32 0 8.67 1.55 10.29
7/4/2021 10:45:00 AM 0 32 0 8.68 1.55 10.27
7/4/2021 11:00:00 AM 0 32 0 8.66 1.55 10.21
7/4/2021 11:15:00 AM 0 32 0 8.68 1.6 10.23
7/4/2021 11:30:00 AM 0 32 0 8.68 1.54 10.17
7/4/2021 11:45:00 AM 0 32 0 8.71 1.54 10.29
7/4/2021 12:00:00 PM 0 32 0 8.76 1.52 10.34
7/4/2021 12:15:00 PM 0 32 0 8.75 1.57 10.26
7/4/2021 12:30:00 PM 0 32 0 8.76 1.58 10.23
7/4/2021 12:45:00 PM 0 32 0 8.78 1.52 10.27
7/4/2021 1:00:00 PM 0 32 0 8.79 1.54 10.25
7/4/2021 1:15:00 PM 0 32 0 8.83 1.6 10.48
7/4/2021 1:30:00 PM 0 32 0 8.8 1.49 10.21
7/4/2021 1:45:00 PM 0 32 0 8.83 1.55 10.35
7/4/2021 2:00:00 PM 0 32 0 8.9 1.42 10.47
7/4/2021 2:15:00 PM 0 32 0 8.93 1.54 10.49
7/4/2021 2:30:00 PM 0 32 0 8.96 1.57 10.51
7/4/2021 2:45:00 PM 0 32 0 8.95 1.69 10.49
7/4/2021 3:00:00 PM 0 32 0 8.96 1.55 10.41
7/4/2021 3:15:00 PM 0 32 0 8.98 1.48 10.38
7/4/2021 3:30:00 PM 0 32 0 9 1.62 10.45
7/4/2021 3:45:00 PM 0 32 0 9.01 1.57 10.45
7/4/2021 4:00:00 PM 0 32 0 8.99 1.61 10.27
7/4/2021 4:15:00 PM 0 32 0 8.97 1.52 10.21
7/4/2021 4:30:00 PM 0 32 0 8.96 1.59 10.14
7/4/2021 4:45:00 PM 0 32 0 8.93 1.6 9.97
7/4/2021 5:00:00 PM 0 32 0 8.91 1.52 9.91
7/4/2021 5:15:00 PM 0 32 0 8.88 1.54 9.81
7/4/2021 5:30:00 PM 0 32 0 8.85 1.5 9.67
7/4/2021 5:45:00 PM 0 32 0 8.8 1.61 9.52
7/4/2021 6:00:00 PM 0 32 0 8.72 1.47 9.3
7/4/2021 6:15:00 PM 0 32 0 8.64 1.5 9.14
7/4/2021 6:30:00 PM 0 32 0 8.53 1.58 8.96
7/4/2021 6:45:00 PM 0 32 0 8.42 1.47 8.8
7/4/2021 7:00:00 PM 0 32 0 8.32 1.43 8.64
7/4/2021 7:15:00 PM 0 32 0 8.18 1.34 8.37
7/4/2021 7:30:00 PM 0 32 0 8.07 1.43 8.19
7/4/2021 7:45:00 PM 0 32 0 7.98 1.39 8.07
7/4/2021 8:00:00 PM 0 32 0 7.91 1.41 7.94
7/4/2021 8:15:00 PM 0 32 0 7.85 1.4 7.85
7/4/2021 8:30:00 PM 0 32 0 7.82 1.43 7.76
7/4/2021 8:45:00 PM 0 32 0 7.8 1.41 7.66
7/4/2021 9:00:00 PM 0 32 0 7.78 1.44 7.61
7/4/2021 9:15:00 PM 0 32 0 7.76 1.58 7.57
7/4/2021 9:30:00 PM 0 32 0 7.74 1.62 7.55
7/4/2021 9:45:00 PM 0 32 0 7.74 1.7 7.55
7/4/2021 10:00:00 PM 0 32 0 7.74 1.68 7.55
7/4/2021 10:15:00 PM 0 32 0 7.73 1.73 7.58
7/4/2021 10:30:00 PM 0 32 0 7.72 1.63 7.59
7/4/2021 10:45:00 PM 0 32 0 7.72 1.77 7.62
7/4/2021 11:00:00 PM 0 32 0 7.73 1.74 7.64
7/4/2021 11:15:00 PM 0 32 0 7.72 1.7 7.66
7/4/2021 11:30:00 PM 0 32 0 7.72 1.72 7.68
7/4/2021 11:45:00 PM 0 32 0 7.72 1.73 7.7
7/5/2021 12:00:00 AM 0 32 0 7.71 1.79 7.72
7/5/2021 12:15:00 AM 0 32 0 7.71 1.74 7.74
7/5/2021 12:30:00 AM 0 32 0 7.7 1.8 7.76
7/5/2021 12:45:00 AM 0 32 0 7.72 1.8 7.79
7/5/2021 1:00:00 AM 0 32 0 7.71 1.83 7.8
7/5/2021 1:15:00 AM 0 32 0 7.71 1.81 7.81
7/5/2021 1:30:00 AM 0 32 0 7.7 1.88 7.83
7/5/2021 1:45:00 AM 0 32 0 7.7 1.78 7.84
7/5/2021 2:00:00 AM 0 32 0 7.7 1.7 7.87
7/5/2021 2:15:00 AM 0 32 0 7.69 1.72 7.88
7/5/2021 2:30:00 AM 0 32 0 7.7 1.77 7.9
7/5/2021 2:45:00 AM 0 32 0 7.7 1.86 7.93
7/5/2021 3:00:00 AM 0 32 0 7.7 1.82 7.93
7/5/2021 3:15:00 AM 0 32 0 7.69 1.79 7.95
7/5/2021 3:30:00 AM 0 32 0 7.69 1.83 7.97
7/5/2021 3:45:00 AM 0 32 0 7.68 1.8 7.99
7/5/2021 4:00:00 AM 0 32 0 7.69 1.85 7.99
7/5/2021 4:15:00 AM 0 32 0 7.68 1.72 8.01
7/5/2021 4:30:00 AM 0 32 0 7.68 1.82 8.03
7/5/2021 4:45:00 AM 0 32 0 7.67 1.88 8.04
7/5/2021 5:00:00 AM 0 32 0 7.67 1.85 8.05
7/5/2021 5:15:00 AM 0 32 0 7.67 1.72 8.07
7/5/2021 5:30:00 AM 0 32 0 7.68 1.59 8.09
7/5/2021 5:45:00 AM 0 32 0 7.7 1.5 8.18
7/5/2021 6:00:00 AM 0 32 0 7.72 1.57 8.3
7/5/2021 6:15:00 AM 0 32 0 7.75 1.4 8.44
7/5/2021 6:30:00 AM 0 32 0 7.79 1.43 8.63
7/5/2021 6:45:00 AM 0 32 0 7.84 1.38 8.83
7/5/2021 7:00:00 AM 0 32 0 7.91 1.34 9.05
7/5/2021 7:15:00 AM 0 32 0 7.98 1.33 9.28
7/5/2021 7:30:00 AM 0 32 0 8.06 1.41 9.48
7/5/2021 7:45:00 AM 0 32 0 8.14 1.34 9.7
7/5/2021 8:00:00 AM 0 32 0 8.23 1.32 9.87
7/5/2021 8:15:00 AM 0 32 0 8.31 1.34 10.06
7/5/2021 8:30:00 AM 0 32 0 8.39 1.32 10.2
7/5/2021 8:45:00 AM 0 32 0 8.46 1.37 10.34
7/5/2021 9:00:00 AM 0 32 0 8.53 1.38 10.48
7/5/2021 9:15:00 AM 0 32 0 8.6 1.29 10.63
7/5/2021 9:30:00 AM 0 32 0 8.67 1.36 10.74
7/5/2021 9:45:00 AM 0 32 0 8.72 1.35 10.85
7/5/2021 10:00:00 AM 0 32 0 8.78 1.36 10.95
7/5/2021 10:15:00 AM 0 32 0 8.82 1.45 11
7/5/2021 10:30:00 AM 0 32 0 8.87 1.39 11.08
7/5/2021 10:45:00 AM 0 32 0 8.9 1.31 11.11
7/5/2021 11:00:00 AM 0 32 0 8.94 1.36 11.16
7/5/2021 11:15:00 AM 0 32 0 8.97 1.4 11.21
7/5/2021 11:30:00 AM 0 32 0 9 1.37 11.24
7/5/2021 11:45:00 AM 0 32 0 9.02 1.42 11.24
7/5/2021 12:00:00 PM 0 32 0 9.05 1.39 11.26
7/5/2021 12:15:00 PM 0 32 0 9.08 1.45 11.28
7/5/2021 12:30:00 PM 0 32 0 9.1 1.39 11.3
7/5/2021 12:45:00 PM 0 32 0 9.13 1.38 11.33
7/5/2021 1:00:00 PM 0 32 0 9.15 1.36 11.33
7/5/2021 1:15:00 PM 0 32 0 9.17 1.38 11.34
7/5/2021 1:30:00 PM 0 32 0 9.19 1.48 11.33
7/5/2021 1:45:00 PM 0 32 0 9.21 1.47 11.32
7/5/2021 2:00:00 PM 0 32 0 9.23 1.39 11.31
7/5/2021 2:15:00 PM 0 32 0 9.24 1.41 11.11
7/5/2021 2:30:00 PM 0 32 0 9.24 1.39 11.24
7/5/2021 2:45:00 PM 0 32 0 9.25 1.41 11.21
7/5/2021 3:00:00 PM 0 32 0 9.26 1.4 11.15
7/5/2021 3:15:00 PM 0 32 0 9.25 1.37 11.11
7/5/2021 3:30:00 PM 0 32 0 9.26 1.26 11.06
7/5/2021 3:45:00 PM 0 32 0 9.25 1.42 10.97
7/5/2021 4:00:00 PM 0 32 0 9.24 1.41 10.83
7/5/2021 4:15:00 PM 0 32 0 9.21 1.37 10.72
7/5/2021 4:30:00 PM 0 32 0 9.2 1.38 10.64
7/5/2021 4:45:00 PM 0 32 0 9.18 1.39 10.54
7/5/2021 5:00:00 PM 0 32 0 9.16 1.42 10.43
7/5/2021 5:15:00 PM 0 32 0 9.13 1.33 10.31
7/5/2021 5:30:00 PM 0 32 0 9.09 1.39 10.17
7/5/2021 5:45:00 PM 0 32 0 9.05 1.36 9.99
7/5/2021 6:00:00 PM 0 32 0 8.98 1.35 9.81
7/5/2021 6:15:00 PM 0 32 0 8.91 1.43 9.62
7/5/2021 6:30:00 PM 0 32 0 8.84 1.31 9.49
7/5/2021 6:45:00 PM 0 32 0 8.75 1.29 9.24
7/5/2021 7:00:00 PM 0 32 0 8.65 1.32 9.06
7/5/2021 7:15:00 PM 0 32 0 8.52 1.28 8.79
7/5/2021 7:30:00 PM 0 32 0 8.38 1.19 8.5
7/5/2021 7:45:00 PM 0 32 0 8.22 1.28 8.21
7/5/2021 8:00:00 PM 0 32 0 8.07 1.3 7.91
7/5/2021 8:15:00 PM 0 32 0 7.95 1.3 7.63
7/5/2021 8:30:00 PM 0 32 0 7.89 1.28 7.49
7/5/2021 8:45:00 PM 0 32 0 7.85 1.3 7.36
7/5/2021 9:00:00 PM 0 32 0 7.81 1.3 7.25
7/5/2021 9:15:00 PM 0 32 0 7.79 1.48 7.2
7/5/2021 9:30:00 PM 0 32 0 7.78 1.55 7.17
7/5/2021 9:45:00 PM 0 32 0 7.78 1.5 7.16
7/5/2021 10:00:00 PM 0 32 0 7.77 1.54 7.16
7/5/2021 10:15:00 PM 0 32 0 7.78 1.49 7.17
7/5/2021 10:30:00 PM 0 32 0 7.78 1.48 7.18
7/5/2021 10:45:00 PM 0 32 0 7.76 1.51 7.16
7/5/2021 11:00:00 PM 0 32 0 7.77 1.43 7.19
7/5/2021 11:15:00 PM 0 32 0 7.77 1.52 7.18
7/5/2021 11:30:00 PM 0 32 0 7.76 1.57 7.19
7/5/2021 11:45:00 PM 0 32 0 7.76 1.6 7.2
7/6/2021 12:00:00 AM 0 32 0 7.75 1.89 7.2
7/6/2021 12:15:00 AM 0 32 0 7.76 1.49 7.2
7/6/2021 12:30:00 AM 0 32 0 7.75 1.49 7.22
7/6/2021 12:45:00 AM 0 32 0 7.75 1.55 7.23
7/6/2021 1:00:00 AM 0 32 0 7.74 1.51 7.24
7/6/2021 1:15:00 AM 0 32 0 7.75 1.58 7.24
7/6/2021 1:30:00 AM 0 32 0 7.75 1.57 7.26
7/6/2021 1:45:00 AM 0 32 0 7.75 1.55 7.26
7/6/2021 2:00:00 AM 0 32 0 7.75 1.49 7.27
7/6/2021 2:15:00 AM 0 32 0 7.75 1.6 7.28
7/6/2021 2:30:00 AM 0 32 0 7.75 1.61 7.28
7/6/2021 2:45:00 AM 0 32 0 7.75 1.65 7.29
7/6/2021 3:00:00 AM 0 32 0 7.74 1.56 7.3
7/6/2021 3:15:00 AM 0 32 0 7.75 1.68 7.31
7/6/2021 3:30:00 AM 0 32 0 7.75 1.59 7.32
7/6/2021 3:45:00 AM 0 32 0 7.75 1.59 7.33
7/6/2021 4:00:00 AM 0 32 0 7.73 1.6 7.33
7/6/2021 4:15:00 AM 0 32 0 7.74 1.52 7.34
7/6/2021 4:30:00 AM 0 32 0 7.73 1.58 7.35
7/6/2021 4:45:00 AM 0 32 0 7.72 1.73 7.35
7/6/2021 5:00:00 AM 0 32 0 7.73 1.57 7.36
7/6/2021 5:15:00 AM 0 32 0 7.73 1.57 7.36
7/6/2021 5:30:00 AM 0 32 0 7.73 1.54 7.37
7/6/2021 5:45:00 AM 0 32 0 7.74 1.45 7.41
7/6/2021 6:00:00 AM 0 32 0 7.75 1.51 7.48
7/6/2021 6:15:00 AM 0 32 0 7.77 1.41 7.57
7/6/2021 6:30:00 AM 0 32 0 7.78 1.69 7.72
7/6/2021 6:45:00 AM 0 32 0 7.82 1.42 7.92
7/6/2021 7:00:00 AM 0 32 0 7.9 1.38 8.37
7/6/2021 7:15:00 AM 0 32 0 7.93 13.43 8.42
7/6/2021 7:30:00 AM 0 32 0 8.02 1.32 8.82
7/6/2021 7:45:00 AM 0 32 0 8.15 1.35 9.27
7/6/2021 8:00:00 AM 0 32 0 8.36 1.42 9.8
7/6/2021 8:15:00 AM 0 32 0 8.21 1.27 9.08
7/6/2021 8:30:00 AM 0 32 0 8.34 1.43 9.65
7/6/2021 8:45:00 AM 0 32 0 8.48 1.38 9.93
7/6/2021 9:00:00 AM 0 32 0 8.46 1.37 9.77
7/6/2021 9:15:00 AM 0 32 0 8.63 1.32 10.38
7/6/2021 9:30:00 AM 0 32 0 8.73 1.37 10.63
7/6/2021 9:45:00 AM 0 32 0 8.83 1.26 10.95
7/6/2021 10:00:00 AM 0 32 0 8.89 1.33 11.12
7/6/2021 10:15:00 AM 0 32 0 8.97 1.38 11.28
7/6/2021 10:30:00 AM 0 32 0 9 1.26 11.28
7/6/2021 10:45:00 AM 0 32 0 9.07 1.26 11.49
7/6/2021 11:00:00 AM 0 32 0 9.12 1.36 11.43
7/6/2021 11:15:00 AM 0 32 0 9.05 1.32 10.74
7/6/2021 11:30:00 AM 0 32 0 9.06 1.33 10.83
7/6/2021 11:45:00 AM 0 32 0 9.04 1.32 10.69
7/6/2021 12:00:00 PM 0 32 0 9.06 1.33 10.83
7/6/2021 12:15:00 PM 0 32 0 9.11 1.32 11.17
7/6/2021 12:30:00 PM 0 32 0 9.2 3.99 11.53
7/6/2021 12:45:00 PM 0 32 0 9.19 1.26 11.19
7/6/2021 1:00:00 PM 0 32 0 9.16 1.29 10.97
7/6/2021 1:15:00 PM 0 32 0 9.21 1.26 11.4
7/6/2021 1:30:00 PM 0 32 0 9.27 1.31 11.51
7/6/2021 1:45:00 PM 0 32 0 9.28 1.28 11.45
7/6/2021 2:00:00 PM 0 32 0 9.1 1.3 9.85
7/6/2021 2:15:00 PM 0 32 0 8.85 1.28 8.77
7/6/2021 2:30:00 PM 0 32 0 8.73 1.28 8.53
7/6/2021 2:45:00 PM 0 32 0 8.67 1.24 8.62
7/6/2021 3:00:00 PM 0 32 0 8.72 1.23 9.13
7/6/2021 3:15:00 PM 0 32 0 8.74 1.19 9.56
7/6/2021 3:30:00 PM 0 32 0 8.72 1.26 9.76
7/6/2021 3:45:00 PM 0 32 0 8.85 1.3 10.47
7/6/2021 4:00:00 PM 0 32 0 8.97 1.3 11
7/6/2021 4:15:00 PM 0 32 0 9.07 1.35 11.14
7/6/2021 4:30:00 PM 0 32 0 9.03 1.32 10.51
7/6/2021 4:45:00 PM 0 32 0 8.9 1.42 9.9
7/6/2021 5:00:00 PM 0 32 0 8.82 1.33 9.49
7/6/2021 5:15:00 PM 0 32 0 8.72 1.23 9
7/6/2021 5:30:00 PM 0 32 0 8.6 1.25 8.66
7/6/2021 5:45:00 PM 0 32 0 8.48 1.23 8.46
7/6/2021 6:00:00 PM 0 32 0 8.4 1.2 8.55
7/6/2021 6:15:00 PM 0 32 0 8.58 1.25 9.43
7/6/2021 6:30:00 PM 0 32 0 8.54 1.24 9.16
7/6/2021 6:45:00 PM 0 32 0 8.5 1.25 9.2
7/6/2021 7:00:00 PM 0 32 0 8.6 1.2 9.46
7/6/2021 7:15:00 PM 0 32 0 8.52 1.21 9.1
7/6/2021 7:30:00 PM 0 32 0 8.4 1.15 8.72
7/6/2021 7:45:00 PM 0 32 0 8.28 1.14 8.45
7/6/2021 8:00:00 PM 0 32 0 8.18 1.14 8.18
7/6/2021 8:15:00 PM 0 32 0 8.09 1.16 7.99
7/6/2021 8:30:00 PM 0 32 0 7.99 1.17 7.75
7/6/2021 8:45:00 PM 0 32 0 7.91 1.2 7.53
7/6/2021 9:00:00 PM 0 32 0 7.85 1.22 7.37
7/6/2021 9:15:00 PM 0 32 0 7.81 1.19 7.28
7/6/2021 9:30:00 PM 0 32 0 7.8 1.36 7.24
7/6/2021 9:45:00 PM 0 32 0 7.79 1.32 7.21
7/6/2021 10:00:00 PM 0 32 0 7.77 1.28 7.18
7/6/2021 10:15:00 PM 0 32 0 7.76 1.32 7.17
7/6/2021 10:30:00 PM 0 32 0 7.76 1.31 7.18
7/6/2021 10:45:00 PM 0 32 0 7.76 1.32 7.17
7/6/2021 11:00:00 PM 0 32 0 7.76 1.34 7.19
7/6/2021 11:15:00 PM 0 32 0 7.75 1.4 7.2
7/6/2021 11:30:00 PM 0 32 0 7.75 1.46 7.21
7/6/2021 11:45:00 PM 0 32 0 7.76 1.39 7.21
7/7/2021 12:00:00 AM 0 32 0 7.76 1.43 7.23
7/7/2021 12:15:00 AM 0 32 0 7.76 1.43 7.23
7/7/2021 12:30:00 AM 0 32 0 7.76 1.36 7.25
7/7/2021 12:45:00 AM 0 32 0 7.75 1.37 7.27
7/7/2021 1:00:00 AM 0 32 0 7.74 1.43 7.28
7/7/2021 1:15:00 AM 0 32 0 7.75 1.43 7.29
7/7/2021 1:30:00 AM 0 32 0 7.74 1.54 7.29
7/7/2021 1:45:00 AM 0 32 0 7.74 1.43 7.31
7/7/2021 2:00:00 AM 0 32 0 7.73 1.41 7.32
7/7/2021 2:15:00 AM 0 32 0 7.71 1.58 7.33
7/7/2021 2:30:00 AM 0 32 0 7.72 1.53 7.34
7/7/2021 2:45:00 AM 0 32 0 7.72 1.49 7.35
7/7/2021 3:00:00 AM 0 32 0 7.7 1.45 7.35
7/7/2021 3:15:00 AM 0 32 0 7.7 1.53 7.38
7/7/2021 3:30:00 AM 0 32 0 7.7 1.47 7.38
7/7/2021 3:45:00 AM 0 32 0 7.71 1.46 7.39
7/7/2021 4:00:00 AM 0 32 0 7.71 1.5 7.4
7/7/2021 4:15:00 AM 0 32 0 7.72 1.45 7.4
7/7/2021 4:30:00 AM 0 32 0 7.73 1.62 7.4
7/7/2021 4:45:00 AM 0 32 0 7.74 1.55 7.4
7/7/2021 5:00:00 AM 0 32 0 7.74 2.06 7.41
7/7/2021 5:15:00 AM 0 32 0 7.74 1.9 7.41
7/7/2021 5:30:00 AM 0 32 0 7.74 1.9 7.42
7/7/2021 5:45:00 AM 0 32 0 7.75 1.86 7.49
7/7/2021 6:00:00 AM 0 32 0 7.77 1.76 7.61
7/7/2021 6:15:00 AM 0 32 0 7.79 1.71 7.74
7/7/2021 6:30:00 AM 0 32 0 7.82 1.63 7.93
7/7/2021 6:45:00 AM 0 32 0 7.9 1.55 8.31
7/7/2021 7:00:00 AM 0 32 0 7.97 1.5 8.61
7/7/2021 7:15:00 AM 0 32 0 8.05 1.56 8.93
7/7/2021 7:30:00 AM 0 32 0 8.18 1.64 9.32
7/7/2021 7:45:00 AM 0 32 0 8.35 1.59 9.81
7/7/2021 8:00:00 AM 0 32 0 8.36 1.48 9.78
7/7/2021 8:15:00 AM 0 32 0 8.51 1.33 10.28
7/7/2021 8:30:00 AM 0 32 0 8.61 1.46 10.46
7/7/2021 8:45:00 AM 0 32 0 8.49 1.47 9.86
7/7/2021 9:00:00 AM 0 32 0 8.63 1.55 10.46
7/7/2021 9:15:00 AM 0 32 0 8.78 1.47 10.91
7/7/2021 9:30:00 AM 0 32 0 8.87 1.32 11.11
7/7/2021 9:45:00 AM 0 32 0 8.92 2.65 11.25
7/7/2021 10:00:00 AM 0 32 0 8.98 1.83 11.42
7/7/2021 10:15:00 AM 0 32 0 9.04 1.35 11.5
7/7/2021 10:30:00 AM 0 32 0 9.09 1.34 11.53
7/7/2021 10:45:00 AM 0 32 0 9.15 1.31 11.7
7/7/2021 11:00:00 AM 0 32 0 9.21 1.37 11.75
7/7/2021 11:15:00 AM 0 32 0 9.23 1.25 11.76
7/7/2021 11:30:00 AM 0 32 0 9.28 2.28 11.81
7/7/2021 11:45:00 AM 0 32 0 9.3 1.31 11.77
7/7/2021 12:00:00 PM 0 32 0 9.33 1.27 11.84
7/7/2021 12:15:00 PM 0 32 0 9.34 1.3 11.6
7/7/2021 12:30:00 PM 0 32 0 9.32 1.2 11.38
7/7/2021 12:45:00 PM 0 32 0 9.28 1.26 11.1
7/7/2021 1:00:00 PM 0 32 0 9.31 1.2 11.35
7/7/2021 1:15:00 PM 0 32 0 9.32 1.22 11.25
7/7/2021 1:30:00 PM 0 32 0 9.3 1.22 11.24
7/7/2021 1:45:00 PM 0 32 0 9.33 1.22 11.34
7/7/2021 2:00:00 PM 0 32 0 9.36 1.17 11.46
7/7/2021 2:15:00 PM 0 32 0 9.37 1.27 11.4
7/7/2021 2:30:00 PM 0 32 0 9.38 1.2 11.5
7/7/2021 2:45:00 PM 0 32 0 9.39 1.22 11.35
7/7/2021 3:00:00 PM 0 32 0 9.36 1.17 11
7/7/2021 3:15:00 PM 0 32 0 9.35 1.19 11
7/7/2021 3:30:00 PM 0 32 0 9.32 1.3 10.71
7/7/2021 3:45:00 PM 0 32 0 9.3 1.16 10.65
7/7/2021 4:00:00 PM 0 32 0 9.26 1.31 10.5
7/7/2021 4:15:00 PM 0 32 0 9.26 1.27 10.62
7/7/2021 4:30:00 PM 0 32 0 9.28 1.22 10.85
7/7/2021 4:45:00 PM 0 32 0 9.27 1.29 10.81
7/7/2021 5:00:00 PM 0 32 0 9.26 1.25 10.66
7/7/2021 5:15:00 PM 0 32 0 9.24 1.16 10.6
7/7/2021 5:30:00 PM 0 32 0 9.21 1.23 10.39
7/7/2021 5:45:00 PM 0 32 0 9.21 1.19 10.3
7/7/2021 6:00:00 PM 0 32 0 9.18 1.17 10.1
7/7/2021 6:15:00 PM 0 32 0 9.13 1.2 9.91
7/7/2021 6:30:00 PM 0 32 0 9.03 1.16 9.42
7/7/2021 6:45:00 PM 0 32 0 8.89 1.13 8.96
7/7/2021 7:00:00 PM 0 32 0 8.73 1.15 8.52
7/7/2021 7:15:00 PM 0 32 0 8.61 1.17 8.35
7/7/2021 7:30:00 PM 0 32 0 8.51 1.2 8.22
7/7/2021 7:45:00 PM 0 32 0 8.37 1.17 8.05
7/7/2021 8:00:00 PM 0 32 0 8.25 1.1 7.88
7/7/2021 8:15:00 PM 0 32 0 8.08 1.1 7.51
7/7/2021 8:30:00 PM 0 32 0 7.95 1.1 7.23
7/7/2021 8:45:00 PM 0 32 0 7.87 1.21 7.05
7/7/2021 9:00:00 PM 0 32 0 7.83 1.16 6.95
7/7/2021 9:15:00 PM 0 32 0 7.8 1.37 6.87
7/7/2021 9:30:00 PM 0 32 0 7.78 1.24 6.84
7/7/2021 9:45:00 PM 0 32 0 7.77 1.31 6.82
7/7/2021 10:00:00 PM 0 32 0 7.76 1.23 6.8
7/7/2021 10:15:00 PM 0 32 0 7.75 1.19 6.81
7/7/2021 10:30:00 PM 0 32 0 7.76 1.22 6.84
7/7/2021 10:45:00 PM 0 32 0 7.76 1.43 6.99
7/7/2021 11:00:00 PM 0 32 0 7.74 1.52 7.04
7/7/2021 11:15:00 PM 0 32 0 7.75 1.65 7.06
7/7/2021 11:30:00 PM 0 32 0 7.78 2.98 7.18
7/7/2021 11:45:00 PM 0 32 0 7.77 3.15 7.18
7/8/2021 12:00:00 AM 0 32 0 7.73 4.43 6.99
7/8/2021 12:15:00 AM 0 32 0 7.72 4.67 6.9
7/8/2021 12:30:00 AM 0 32 0 7.7 4.39 6.86
7/8/2021 12:45:00 AM 0 32 0 7.7 3.89 6.85
7/8/2021 1:00:00 AM 0 32 0 7.7 3.46 6.83
7/8/2021 1:15:00 AM 0 32 0 7.71 2.89 6.86
7/8/2021 1:30:00 AM 0 32 0 7.72 2.6 6.9
7/8/2021 1:45:00 AM 0 32 0 7.72 2.33 6.95
7/8/2021 2:00:00 AM 0 32 0 7.74 2.1 6.99
7/8/2021 2:15:00 AM 0 32 0 7.75 1.97 7.04
7/8/2021 2:30:00 AM 0 32 0 7.76 1.99 7.09
7/8/2021 2:45:00 AM 0 32 0 7.77 2.16 7.16
7/8/2021 3:00:00 AM 0 32 0 7.78 2.21 7.23
7/8/2021 3:15:00 AM 0 32 0 7.81 3.02 7.36
7/8/2021 3:30:00 AM 0 32 0 7.82 2.54 7.44
7/8/2021 3:45:00 AM 0 32 0 7.84 2.72 7.49
7/8/2021 4:00:00 AM 0 32 0 7.83 2.53 7.51
7/8/2021 4:15:00 AM 0 32 0 7.83 2.45 7.54
7/8/2021 4:30:00 AM 0 32 0 7.82 2.76 7.55
7/8/2021 4:45:00 AM 0 32 0 7.83 3.48 7.6
7/8/2021 5:00:00 AM 0 32 0 7.83 4.29 7.64
7/8/2021 5:15:00 AM 0 32 0 7.83 4.05 7.66
7/8/2021 5:30:00 AM 0 32 0 7.84 3.8 7.66
7/8/2021 5:45:00 AM 0 32 0 7.85 3.46 7.67
7/8/2021 6:00:00 AM 0 32 0 7.85 3.43 7.68
7/8/2021 6:15:00 AM 0 32 0 7.87 3.29 7.73
7/8/2021 6:30:00 AM 0 32 0 7.88 3.06 7.83
7/8/2021 6:45:00 AM 0 32 0 7.9 3.03 7.96
7/8/2021 7:00:00 AM 0 32 0 7.95 3.09 8.17
7/8/2021 7:15:00 AM 0 32 0 8 2.87 8.37
7/8/2021 7:30:00 AM 0 32 0 8.13 2.82 8.84
7/8/2021 7:45:00 AM 0 32 0 8.12 2.65 8.7
7/8/2021 8:00:00 AM 0 32 0 8.19 2.44 8.96
7/8/2021 8:15:00 AM 0 32 0 8.27 2.49 9.13
7/8/2021 8:30:00 AM 0 32 0 8.24 2.32 8.94
7/8/2021 8:45:00 AM 0 32 0 8.27 2.15 9.07
7/8/2021 9:00:00 AM 0 32 0 8.35 2.07 9.32
7/8/2021 9:15:00 AM 0 32 0 8.46 2.03 9.65
7/8/2021 9:30:00 AM 0 32 0 8.54 2.04 9.84
7/8/2021 9:45:00 AM 0 32 0 8.66 1.87 10.17
7/8/2021 10:00:00 AM 0 32 0 8.77 1.84 10.47
7/8/2021 10:15:00 AM 0 32 0 8.84 1.83 10.63
7/8/2021 10:30:00 AM 0 32 0 8.91 1.84 10.75
7/8/2021 10:45:00 AM 0 32 0 8.97 2.11 10.81
7/8/2021 11:00:00 AM 0 32 0 8.98 1.76 10.75
7/8/2021 11:15:00 AM 0 32 0 8.98 1.75 10.63
7/8/2021 11:30:00 AM 0 32 0 8.96 1.74 10.46
7/8/2021 11:45:00 AM 0 32 0 8.97 1.74 10.5
7/8/2021 12:00:00 PM 0 32 0 9 1.6 10.62
7/8/2021 12:15:00 PM 0 32 0 9.02 1.63 10.63
7/8/2021 12:30:00 PM 0 32 0 9.04 1.6 10.69
7/8/2021 12:45:00 PM 0 32 0 9.04 1.67 10.59
7/8/2021 1:00:00 PM 0 32 0 9.01 1.58 10.32
7/8/2021 1:15:00 PM 0 32 0 8.93 1.62 9.76
7/8/2021 1:30:00 PM 0 32 0 8.9 1.57 9.75
7/8/2021 1:45:00 PM 0 32 0 8.81 1.49 9.46
7/8/2021 2:00:00 PM 0 32 0 8.87 1.57 9.99
7/8/2021 2:15:00 PM 0 32 0 8.88 1.52 10.14
7/8/2021 2:30:00 PM 0 32 0 8.97 1.51 10.56
7/8/2021 2:45:00 PM 0 32 0 9.02 1.51 10.67
7/8/2021 3:00:00 PM 0 32 0 9.07 1.63 10.73
7/8/2021 3:15:00 PM 0 32 0 9 1.47 10.13
7/8/2021 3:30:00 PM 0 32 0 9 1.51 10.15
7/8/2021 3:45:00 PM 0 32 0 8.97 1.46 9.97
7/8/2021 4:00:00 PM 0 32 0 8.9 1.47 9.72
7/8/2021 4:15:00 PM 0 32 0 8.9 1.51 9.9
7/8/2021 4:30:00 PM 0 32 0 8.91 1.45 9.99
7/8/2021 4:45:00 PM 0 32 0 8.94 1.55 10.16
7/8/2021 5:00:00 PM 0 32 0 8.95 1.59 10.22
7/8/2021 5:15:00 PM 0 32 0 8.98 1.49 10.23
7/8/2021 5:30:00 PM 0 32 0 8.88 1.48 9.63
7/8/2021 5:45:00 PM 0 32 0 8.82 1.51 9.37
7/8/2021 6:00:00 PM 0 32 0 8.73 1.42 9.08
7/8/2021 6:15:00 PM 0 32 0 8.52 1.38 8.52
7/8/2021 6:30:00 PM 0 32 0 8.37 1.39 8.31
7/8/2021 6:45:00 PM 0 32 0 8.26 1.45 8.14
7/8/2021 7:00:00 PM 0 32 0 8.17 1.37 8
7/8/2021 7:15:00 PM 0 32 0 8.07 1.44 7.81
7/8/2021 7:30:00 PM 0 32 0 8 1.5 7.67
7/8/2021 7:45:00 PM 0 32 0 7.95 1.43 7.59
7/8/2021 8:00:00 PM 0 32 0 7.91 1.48 7.5
7/8/2021 8:15:00 PM 0 32 0 7.88 1.54 7.46
7/8/2021 8:30:00 PM 0 32 0 7.86 1.53 7.43
7/8/2021 8:45:00 PM 0 32 0 7.85 1.83 7.39
7/8/2021 9:00:00 PM 0 32 0 7.82 1.94 7.34
7/8/2021 9:15:00 PM 0 32 0 7.79 2.8 7.23
7/8/2021 9:30:00 PM 0 32 0 7.77 2.79 7.17
7/8/2021 9:45:00 PM 0 32 0 7.77 2.69 7.21
7/8/2021 10:00:00 PM 0 32 0 7.76 2.41 7.24
7/8/2021 10:15:00 PM 0 32 0 7.77 2.35 7.31
7/8/2021 10:30:00 PM 0 32 0 7.79 2.45 7.4
7/8/2021 10:45:00 PM 0 32 0 7.81 13.22 7.68
7/8/2021 11:00:00 PM 0 32 0 7.77 38.5 7.9
7/8/2021 11:15:00 PM 0 32 0 7.74 49.74 8
7/8/2021 11:30:00 PM 0 32 0 7.72 42.57 8.05
7/8/2021 11:45:00 PM 0 32 0 7.71 36.75 8.03
7/9/2021 12:00:00 AM 0 32 0 7.77 28.11 8
7/9/2021 12:15:00 AM 0 32 0 7.77 38.12 7.99
7/9/2021 12:30:00 AM 0 32 0 7.82 29.43 8.02
7/9/2021 12:45:00 AM 0 32 0 7.79 33.98 8.09
7/9/2021 1:00:00 AM 0 32 0 7.77 43.75 8.13
7/9/2021 1:15:00 AM 0 32 0 7.79 57.66 8.19
7/9/2021 1:30:00 AM 0 32 0 7.76 63.66 8.23
7/9/2021 1:45:00 AM 0 32 0 7.73 51.4 8.22
7/9/2021 2:00:00 AM 0 32 0 7.74 46.06 8.24
7/9/2021 2:15:00 AM 0 32 0 7.76 39.69 8.24
7/9/2021 2:30:00 AM 0 32 0 7.77 37.84 8.23
7/9/2021 2:45:00 AM 0 32 0 7.78 33.32 8.23
7/9/2021 3:00:00 AM 0 32 0 7.77 34.81 8.21
7/9/2021 3:15:00 AM 0 32 0 7.76 25.15 8.21
7/9/2021 3:30:00 AM 0 32 0 7.76 24.6 8.2
7/9/2021 3:45:00 AM 0 32 0 7.75 23.31 8.21
7/9/2021 4:00:00 AM 0 32 0 7.75 21.15 8.19
7/9/2021 4:15:00 AM 0 32 0 7.76 16.87 8.18
7/9/2021 4:30:00 AM 0 32 0 7.76 17.93 8.17
7/9/2021 4:45:00 AM 0 32 0 7.76 18.29 8.16
7/9/2021 5:00:00 AM 0 32 0 7.76 15.83 8.16
7/9/2021 5:15:00 AM 0 32 0 7.75 14.84 8.14
7/9/2021 5:30:00 AM 0 32 0 7.75 14.86 8.15
7/9/2021 5:45:00 AM 0 32 0 7.73 13.83 8.15
7/9/2021 6:00:00 AM 0 32 0 7.74 13.1 8.15
7/9/2021 6:15:00 AM 0 32 0 7.75 11.81 8.17
7/9/2021 6:30:00 AM 0 32 0 7.77 11.09 8.21
7/9/2021 6:45:00 AM 0 32 0 7.78 10.17 8.28
7/9/2021 7:00:00 AM 0 32 0 7.8 9.47 8.29
7/9/2021 7:15:00 AM 0 32 0 7.8 8.77 8.29
7/9/2021 7:30:00 AM 0 32 0 7.8 8.31 8.32
7/9/2021 7:45:00 AM 0 32 0 7.83 7.92 8.41
7/9/2021 8:00:00 AM 0 32 0 7.84 7.56 8.46
7/9/2021 8:15:00 AM 0 32 0 7.92 7.52 8.67
7/9/2021 8:30:00 AM 0 32 0 7.98 6.75 8.79
7/9/2021 8:45:00 AM 0 32 0 8.07 6.26 9.06
7/9/2021 9:00:00 AM 0 32 0 8.17 6.13 9.25
7/9/2021 9:15:00 AM 0 32 0 8.29 5.6 9.39
7/9/2021 9:30:00 AM 0 32 0 8.29 5.7 9.36
7/9/2021 9:45:00 AM 0 32 0 8.15 5.59 8.95
7/9/2021 10:00:00 AM 0 32 0 8.18 5.26 9.07
7/9/2021 10:15:00 AM 0 32 0 8.21 4.91 9.14
7/9/2021 10:30:00 AM 0 32 0 8.31 82.07 9.34
7/9/2021 10:45:00 AM 0 32 0 8.39 4.9 9.45
7/9/2021 11:00:00 AM 0 32 0 8.45 4.69 9.56
7/9/2021 11:15:00 AM 0 32 0 8.31 4.41 9.1
7/9/2021 11:30:00 AM 0 32 0 8.36 4.39 9.27
7/9/2021 11:45:00 AM 0 32 0 8.36 4.32 9.14
7/9/2021 12:00:00 PM 0 32 0 8.37 4.12 9.32
7/9/2021 12:15:00 PM 0 32 0 8.51 4.12 9.64
7/9/2021 12:30:00 PM 0 32 0 8.6 4.22 9.79
7/9/2021 12:45:00 PM 0 32 0 8.58 4.18 9.54
7/9/2021 1:00:00 PM 0 32 0 8.58 4.13 9.49
7/9/2021 1:15:00 PM 0 32 0 8.62 4.1 9.49
7/9/2021 1:30:00 PM 0 32 0 8.71 4.01 9.82
7/9/2021 1:45:00 PM 0 32 0 8.79 4.15 9.91
7/9/2021 2:00:00 PM 0 32 0 8.81 3.93 9.89
7/9/2021 2:15:00 PM 0 32 0 8.8 3.81 9.69
7/9/2021 2:30:00 PM 0 32 0 8.69 3.84 9.26
7/9/2021 2:45:00 PM 0 32 0 8.49 3.64 8.69
7/9/2021 3:00:00 PM 0 32 0 8.34 3.53 8.4
7/9/2021 3:15:00 PM 0 32 0 8.29 3.52 8.44
7/9/2021 3:30:00 PM 0 32 0 8.22 3.26 8.36
7/9/2021 3:45:00 PM 0 32 0 8.31 3.26 8.73
7/9/2021 4:00:00 PM 0 32 0 8.37 3.05 8.91
7/9/2021 4:15:00 PM 0 32 0 8.5 3.29 9.35
7/9/2021 4:30:00 PM 0 32 0 8.6 3.19 9.54
7/9/2021 4:45:00 PM 0 32 0 8.64 3.07 9.56
7/9/2021 5:00:00 PM 0 32 0 8.71 3.12 9.67
7/9/2021 5:15:00 PM 0 32 0 8.69 3.04 9.53
7/9/2021 5:30:00 PM 0 32 0 8.7 2.9 9.55
7/9/2021 5:45:00 PM 0 32 0 8.66 2.86 9.31
7/9/2021 6:00:00 PM 0 32 0 8.59 2.76 9.15
7/9/2021 6:15:00 PM 0 32 0 8.5 2.84 8.92
7/9/2021 6:30:00 PM 0 32 0 8.43 2.73 8.84
7/9/2021 6:45:00 PM 0 32 0 8.38 2.91 8.74
7/9/2021 7:00:00 PM 0 32 0 8.35 2.7 8.71
7/9/2021 7:15:00 PM 0 32 0 8.28 2.74 8.56
7/9/2021 7:30:00 PM 0 32 0 8.15 2.61 8.31
7/9/2021 7:45:00 PM 0 32 0 8.09 2.65 8.19
7/9/2021 8:00:00 PM 0 32 0 8 2.59 8
7/9/2021 8:15:00 PM 0 32 0 7.93 2.52 7.89
7/9/2021 8:30:00 PM 0 32 0 7.89 2.63 7.8
7/9/2021 8:45:00 PM 0 32 0 7.84 2.69 7.72
7/9/2021 9:00:00 PM 0 32 0 7.81 2.69 7.67
7/9/2021 9:15:00 PM 0 32 0 7.79 2.73 7.65
7/9/2021 9:30:00 PM 0 32 0 7.79 2.76 7.63
7/9/2021 9:45:00 PM 0 32 0 7.77 2.78 7.63
7/9/2021 10:00:00 PM 0 32 0 7.78 2.7 7.64
7/9/2021 10:15:00 PM 0 32 0 7.77 2.65 7.64
7/9/2021 10:30:00 PM 0 32 0 7.77 2.53 7.65
7/9/2021 10:45:00 PM 0 32 0 7.77 2.72 7.66
7/9/2021 11:00:00 PM 0 32 0 7.78 2.61 7.66
7/9/2021 11:15:00 PM 0 32 0 7.78 2.58 7.67
7/9/2021 11:30:00 PM 0 32 0 7.77 2.67 7.69
7/9/2021 11:45:00 PM 0 32 0 7.77 2.76 7.69
7/10/2021 12:00:00 AM 0 32 0 7.77 2.69 7.7
7/10/2021 12:15:00 AM 0 32 0 7.77 2.93 7.72
7/10/2021 12:30:00 AM 0 32 0 7.78 2.82 7.72
7/10/2021 12:45:00 AM 0 32 0 7.77 2.69 7.74
7/10/2021 1:00:00 AM 0 32 0 7.77 2.58 7.75
7/10/2021 1:15:00 AM 0 32 0 7.77 2.59 7.75
7/10/2021 1:30:00 AM 0 32 0 7.78 2.68 7.77
7/10/2021 1:45:00 AM 0 32 0 7.77 2.52 7.76
7/10/2021 2:00:00 AM 0 32 0 7.76 2.53 7.78
7/10/2021 2:15:00 AM 0 32 0 7.77 2.49 7.8
7/10/2021 2:30:00 AM 0 32 0 7.76 2.48 7.8
7/10/2021 2:45:00 AM 0 32 0 7.76 2.43 7.81
7/10/2021 3:00:00 AM 0 32 0 7.76 2.47 7.82
7/10/2021 3:15:00 AM 0 32 0 7.76 2.49 7.83
7/10/2021 3:30:00 AM 0 32 0 7.76 2.54 7.83
7/10/2021 3:45:00 AM 0 32 0 7.76 2.47 7.84
7/10/2021 4:00:00 AM 0 32 0 7.76 2.37 7.85
7/10/2021 4:15:00 AM 0 32 0 7.75 2.45 7.85
7/10/2021 4:30:00 AM 0 32 0 7.76 2.57 7.88
7/10/2021 4:45:00 AM 0 32 0 7.75 2.58 7.88
7/10/2021 5:00:00 AM 0 32 0 7.75 2.45 7.86
7/10/2021 5:15:00 AM 0 32 0 7.75 2.42 7.87
7/10/2021 5:30:00 AM 0 32 0 7.74 2.43 7.88
7/10/2021 5:45:00 AM 0 32 0 7.75 2.32 7.88
7/10/2021 6:00:00 AM 0 32 0 7.76 2.38 7.93
7/10/2021 6:15:00 AM 0 32 0 7.76 2.09 7.95
7/10/2021 6:30:00 AM 0 32 0 7.78 1.96 8.02
7/10/2021 6:45:00 AM 0 32 0 7.8 1.85 8.11
7/10/2021 7:00:00 AM 0 32 0 7.83 1.89 8.19
7/10/2021 7:15:00 AM 0 32 0 7.84 1.83 8.25
7/10/2021 7:30:00 AM 0 32 0 7.87 1.83 8.34
7/10/2021 7:45:00 AM 0 32 0 7.89 1.78 8.41
7/10/2021 8:00:00 AM 0 32 0 7.91 1.79 8.52
7/10/2021 8:15:00 AM 0 32 0 7.97 1.77 8.7
7/10/2021 8:30:00 AM 0 32 0 7.98 1.77 8.72
7/10/2021 8:45:00 AM 0 32 0 8.02 1.67 8.86
7/10/2021 9:00:00 AM 0 32 0 8.15 1.8 9.27
7/10/2021 9:15:00 AM 0 32 0 8.24 1.72 9.46
7/10/2021 9:30:00 AM 0 32 0 8.31 1.71 9.59
7/10/2021 9:45:00 AM 0 32 0 8.39 1.79 9.79
7/10/2021 10:00:00 AM 0 32 0 8.46 1.71 9.89
7/10/2021 10:15:00 AM 0 32 0 8.43 1.69 9.73
7/10/2021 10:30:00 AM 0 32 0 8.38 1.75 9.54
7/10/2021 10:45:00 AM 0 32 0 8.42 1.65 9.7
7/10/2021 11:00:00 AM 0 32 0 8.5 1.69 9.92
7/10/2021 11:15:00 AM 0 32 0 8.59 1.72 10.18
7/10/2021 11:30:00 AM 0 32 0 8.62 1.72 10.18
7/10/2021 11:45:00 AM 0 32 0 8.7 1.71 10.41
7/10/2021 12:00:00 PM 0 32 0 8.72 1.71 10.35
7/10/2021 12:15:00 PM 0 32 0 8.76 1.62 10.44
7/10/2021 12:30:00 PM 0 32 0 8.76 1.69 10.37
7/10/2021 12:45:00 PM 0 32 0 8.73 1.69 10.24
7/10/2021 1:00:00 PM 0 32 0 8.79 1.61 10.49
7/10/2021 1:15:00 PM 0 32 0 8.8 1.69 10.48
7/10/2021 1:30:00 PM 0 32 0 8.76 1.72 10.18
7/10/2021 1:45:00 PM 0 32 0 8.71 1.55 10.05
7/10/2021 2:00:00 PM 0 32 0 8.84 1.6 10.54
7/10/2021 2:15:00 PM 0 32 0 8.91 1.67 10.72
7/10/2021 2:30:00 PM 0 32 0 8.94 1.58 10.76
7/10/2021 2:45:00 PM 0 32 0 8.97 1.67 10.84
7/10/2021 3:00:00 PM 0 32 0 9.03 1.62 11.03
7/10/2021 3:15:00 PM 0 32 0 9.04 1.78 10.9
7/10/2021 3:30:00 PM 0 32 0 9.07 2.13 10.94
7/10/2021 3:45:00 PM 0 32 0 9.03 1.58 10.6
7/10/2021 4:00:00 PM 0 32 0 9.02 1.68 10.55
7/10/2021 4:15:00 PM 0 32 0 8.98 1.69 10.32
7/10/2021 4:30:00 PM 0 32 0 8.98 2.2 10.41
7/10/2021 4:45:00 PM 0 32 0 8.96 1.98 10.42
7/10/2021 5:00:00 PM 0 32 0 8.94 1.75 10.38
7/10/2021 5:15:00 PM 0 32 0 8.96 1.64 10.48
7/10/2021 5:30:00 PM 0 32 0 8.94 1.6 10.29
7/10/2021 5:45:00 PM 0 32 0 8.94 1.57 10.27
7/10/2021 6:00:00 PM 0 32 0 8.88 1.67 9.97
7/10/2021 6:15:00 PM 0 32 0 8.81 1.5 9.74
7/10/2021 6:30:00 PM 0 32 0 8.76 1.57 9.56
7/10/2021 6:45:00 PM 0 32 0 8.68 1.55 9.37
7/10/2021 7:00:00 PM 0 32 0 8.57 1.48 9.14
7/10/2021 7:15:00 PM 0 32 0 8.41 1.53 8.84
7/10/2021 7:30:00 PM 0 32 0 8.26 1.53 8.6
7/10/2021 7:45:00 PM 0 32 0 8.14 1.53 8.43
7/10/2021 8:00:00 PM 0 32 0 8.03 1.42 8.29
7/10/2021 8:15:00 PM 0 32 0 7.96 1.46 8.16
7/10/2021 8:30:00 PM 0 32 0 7.89 1.48 8.03
7/10/2021 8:45:00 PM 0 32 0 7.85 1.62 7.89
7/10/2021 9:00:00 PM 0 32 0 7.81 1.58 7.79
7/10/2021 9:15:00 PM 0 32 0 7.77 1.63 7.74
7/10/2021 9:30:00 PM 0 32 0 7.76 1.67 7.72
7/10/2021 9:45:00 PM 0 32 0 7.74 1.83 7.71
7/10/2021 10:00:00 PM 0 32 0 7.73 1.68 7.71
7/10/2021 10:15:00 PM 0 32 0 7.73 1.67 7.71
7/10/2021 10:30:00 PM 0 32 0 7.72 1.65 7.72
7/10/2021 10:45:00 PM 0 32 0 7.72 1.67 7.74
7/10/2021 11:00:00 PM 0 32 0 7.71 1.62 7.74
7/10/2021 11:15:00 PM 0 32 0 7.71 1.75 7.76
7/10/2021 11:30:00 PM 0 32 0 7.71 1.58 7.77
7/10/2021 11:45:00 PM 0 32 0 7.71 1.69 7.79
7/11/2021 12:00:00 AM 0 32 0 7.7 1.68 7.79
7/11/2021 12:15:00 AM 0 32 0 7.7 1.62 7.81
7/11/2021 12:30:00 AM 0 32 0 7.7 1.67 7.82
7/11/2021 12:45:00 AM 0 32 0 7.71 1.7 7.84
7/11/2021 1:00:00 AM 0 32 0 7.7 1.8 7.85
7/11/2021 1:15:00 AM 0 32 0 7.7 1.67 7.87
7/11/2021 1:30:00 AM 0 32 0 7.7 1.68 7.88
7/11/2021 1:45:00 AM 0 32 0 7.69 1.84 7.89
7/11/2021 2:00:00 AM 0 32 0 7.69 1.73 7.91
7/11/2021 2:15:00 AM 0 32 0 7.69 1.72 7.93
7/11/2021 2:30:00 AM 0 32 0 7.69 1.71 7.93
7/11/2021 2:45:00 AM 0 32 0 7.7 1.64 7.95
7/11/2021 3:00:00 AM 0 32 0 7.69 1.68 7.95
7/11/2021 3:15:00 AM 0 32 0 7.7 1.69 7.97
7/11/2021 3:30:00 AM 0 32 0 7.7 1.88 7.99
7/11/2021 3:45:00 AM 0 32 0 7.7 1.72 7.99
7/11/2021 4:00:00 AM 0 32 0 7.7 1.75 8.01
7/11/2021 4:15:00 AM 0 32 0 7.7 1.71 8.01
7/11/2021 4:30:00 AM 0 32 0 7.7 1.67 8.03
7/11/2021 4:45:00 AM 0 32 0 7.7 1.82 8.03
7/11/2021 5:00:00 AM 0 32 0 7.69 1.72 8.03
7/11/2021 5:15:00 AM 0 32 0 7.7 1.7 8.05
7/11/2021 5:30:00 AM 0 32 0 7.71 1.61 8.05
7/11/2021 5:45:00 AM 0 32 0 7.71 1.57 8.08
7/11/2021 6:00:00 AM 0 32 0 7.72 1.48 8.14
7/11/2021 6:15:00 AM 0 32 0 7.75 1.49 8.26
7/11/2021 6:30:00 AM 0 32 0 7.78 1.51 8.45
7/11/2021 6:45:00 AM 0 32 0 7.85 1.44 8.72
7/11/2021 7:00:00 AM 0 32 0 7.9 1.4 8.87
7/11/2021 7:15:00 AM 0 32 0 7.93 1.34 8.94
7/11/2021 7:30:00 AM 0 32 0 7.94 1.35 8.92
7/11/2021 7:45:00 AM 0 32 0 7.97 1.31 9.02
7/11/2021 8:00:00 AM 0 32 0 8.02 1.29 9.2
7/11/2021 8:15:00 AM 0 32 0 8.13 1.31 9.5
7/11/2021 8:30:00 AM 0 32 0 8.23 1.29 9.73
7/11/2021 8:45:00 AM 0 32 0 8.33 1.35 10
7/11/2021 9:00:00 AM 0 32 0 8.45 1.28 10.27
7/11/2021 9:15:00 AM 0 32 0 8.57 1.33 10.58
7/11/2021 9:30:00 AM 0 32 0 8.63 1.35 10.6
7/11/2021 9:45:00 AM 0 32 0 8.65 1.36 10.57
7/11/2021 10:00:00 AM 0 32 0 8.71 1.31 10.71
7/11/2021 10:15:00 AM 0 32 0 8.72 1.36 10.58
7/11/2021 10:30:00 AM 0 32 0 8.79 1.31 10.83
7/11/2021 10:45:00 AM 0 32 0 8.85 1.35 11
7/11/2021 11:00:00 AM 0 32 0 8.81 1.34 10.72
7/11/2021 11:15:00 AM 0 32 0 8.83 1.3 10.83
7/11/2021 11:30:00 AM 0 32 0 8.85 1.34 10.81
7/11/2021 11:45:00 AM 0 32 0 8.85 1.27 10.73
7/11/2021 12:00:00 PM 0 32 0 8.83 1.31 10.61
7/11/2021 12:15:00 PM 0 32 0 8.85 1.33 10.7
7/11/2021 12:30:00 PM 0 32 0 8.84 1.28 10.6
7/11/2021 12:45:00 PM 0 32 0 8.77 1.35 10.31
7/11/2021 1:00:00 PM 0 32 0 8.72 1.31 10.11
7/11/2021 1:15:00 PM 0 32 0 8.72 1.35 10.16
7/11/2021 1:30:00 PM 0 32 0 8.66 1.31 9.91
7/11/2021 1:45:00 PM 0 32 0 8.58 1.34 9.72
7/11/2021 2:00:00 PM 0 32 0 8.46 1.25 9.37
7/11/2021 2:15:00 PM 0 32 0 8.36 1.3 9.14
7/11/2021 2:30:00 PM 0 32 0 8.31 1.31 9.13
7/11/2021 2:45:00 PM 0 32 0 8.32 1.27 9.23
7/11/2021 3:00:00 PM 0 32 0 8.33 1.23 9.31
7/11/2021 3:15:00 PM 0 32 0 8.28 1.26 9.22
7/11/2021 3:30:00 PM 0 32 0 8.28 1.42 9.24
7/11/2021 3:45:00 PM 0 32 0 8.43 1.45 9.71
7/11/2021 4:00:00 PM 0 32 0 8.41 1.46 9.6
7/11/2021 4:15:00 PM 0 32 0 8.36 1.48 9.45
7/11/2021 4:30:00 PM 0 32 0 8.32 1.59 9.32
7/11/2021 4:45:00 PM 0 32 0 8.25 1.91 9.13
7/11/2021 5:00:00 PM 0 32 0 8.18 2.04 8.99
7/11/2021 5:15:00 PM 0 32 0 8.14 2.3 8.94
7/11/2021 5:30:00 PM 0 32 0 8.07 2.31 8.77
7/11/2021 5:45:00 PM 0 32 0 8.03 2.7 8.72
7/11/2021 6:00:00 PM 0 32 0 8.01 2.74 8.68
7/11/2021 6:15:00 PM 0 32 0 7.98 2.57 8.6
7/11/2021 6:30:00 PM 0 32 0 7.95 2.48 8.53
7/11/2021 6:45:00 PM 0 32 0 7.95 2.17 8.56
7/11/2021 7:00:00 PM 0 32 0 7.92 2.03 8.5
7/11/2021 7:15:00 PM 0 32 0 7.91 2.12 8.45
7/11/2021 7:30:00 PM 0 32 0 7.88 2.18 8.41
7/11/2021 7:45:00 PM 0 32 0 7.88 2.32 8.44
7/11/2021 8:00:00 PM 0 32 0 7.87 2.93 8.39
7/11/2021 8:15:00 PM 0 32 0 7.85 3.7 8.35
7/11/2021 8:30:00 PM 0 32 0 7.84 3.91 8.33
7/11/2021 8:45:00 PM 0 32 0 7.82 4.26 8.31
7/11/2021 9:00:00 PM 0 32 0 7.82 4.24 8.33
7/11/2021 9:15:00 PM 0 32 0 7.8 4.84 8.32
7/11/2021 9:30:00 PM 0 32 0 7.79 4.49 8.32
7/11/2021 9:45:00 PM 0 32 0 7.77 4.6 8.33
7/11/2021 10:00:00 PM 0 32 0 7.77 4.9 8.34
7/11/2021 10:15:00 PM 0 32 0 7.76 5.09 8.35
7/11/2021 10:30:00 PM 0 32 0 7.77 5.29 8.36
7/11/2021 10:45:00 PM 0 32 0 7.8 5.55 8.39
7/11/2021 11:00:00 PM 0 32 0 7.79 5.72 8.41
7/11/2021 11:15:00 PM 0 32 0 7.78 6.8 8.42
7/11/2021 11:30:00 PM 0 32 0 7.77 7.76 8.42
7/11/2021 11:45:00 PM 0 32 0 7.77 7.23 8.41
7/12/2021 12:00:00 AM 0 32 0 7.78 6.97 8.43
7/12/2021 12:15:00 AM 0 32 0 7.78 6.59 8.43
7/12/2021 12:30:00 AM 0 32 0 7.78 6.88 8.44
7/12/2021 12:45:00 AM 0 32 0 7.77 6.77 8.43
7/12/2021 1:00:00 AM 0 32 0 7.77 6.67 8.45
7/12/2021 1:15:00 AM 0 32 0 7.76 6.72 8.46
7/12/2021 1:30:00 AM 0 32 0 7.77 6.76 8.46
7/12/2021 1:45:00 AM 0 32 0 7.77 6.94 8.47
7/12/2021 2:00:00 AM 0 32 0 7.77 7.54 8.48
7/12/2021 2:15:00 AM 0 32 0 7.77 8.78 8.49
7/12/2021 2:30:00 AM 0 32 0 7.77 9.52 8.52
7/12/2021 2:45:00 AM 0 32 0 7.77 9.77 8.53
7/12/2021 3:00:00 AM 0 32 0 7.77 9.76 8.53
7/12/2021 3:15:00 AM 0 32 0 7.76 10.22 8.54
7/12/2021 3:30:00 AM 0 32 0 7.75 10.42 8.54
7/12/2021 3:45:00 AM 0 32 0 7.75 10.42 8.55
7/12/2021 4:00:00 AM 0 32 0 7.75 10.38 8.54
7/12/2021 4:15:00 AM 0 32 0 7.75 9.92 8.55
7/12/2021 4:30:00 AM 0 32 0 7.75 9.66 8.54
7/12/2021 4:45:00 AM 0 32 0 7.75 9.24 8.55
7/12/2021 5:00:00 AM 0 32 0 7.75 9.03 8.55
7/12/2021 5:15:00 AM 0 32 0 7.75 8.39 8.54
7/12/2021 5:30:00 AM 0 32 0 7.75 8.59 8.54
7/12/2021 5:45:00 AM 0 32 0 7.75 7.92 8.54
7/12/2021 6:00:00 AM 0 32 0 7.74 8.42 8.54
7/12/2021 6:15:00 AM 0 32 0 7.74 7.81 8.56
7/12/2021 6:30:00 AM 0 32 0 7.74 7.25 8.56
7/12/2021 6:45:00 AM 0 32 0 7.74 7.27 8.57
7/12/2021 7:00:00 AM 0 32 0 7.76 6.71 8.6
7/12/2021 7:15:00 AM 0 32 0 7.75 6.65 8.61
7/12/2021 7:30:00 AM 0 32 0 7.74 5.83 8.66
7/12/2021 7:45:00 AM 0 32 0 7.75 5.95 8.67
7/12/2021 8:00:00 AM 0 32 0 7.79 5.54 8.82
7/12/2021 8:15:00 AM 0 32 0 7.82 5.41 8.9
7/12/2021 8:30:00 AM 0 32 0 7.84 5.35 8.88
7/12/2021 8:45:00 AM 0 32 0 7.89 5.32 9.03
7/12/2021 9:00:00 AM 0 32 0 7.91 5.12 9.09
7/12/2021 9:15:00 AM 0 32 0 7.91 4.98 9.07
7/12/2021 9:30:00 AM 0 32 0 8.05 4.95 9.39
7/12/2021 9:45:00 AM 0 32 0 8.1 4.85 9.47
7/12/2021 10:00:00 AM 0 32 0 8.07 4.62 9.34
7/12/2021 10:15:00 AM 0 32 0 8.07 4.75 9.32
7/12/2021 10:30:00 AM 0 32 0 8.09 4.61 9.32
7/12/2021 10:45:00 AM 0 32 0 8.03 4.5 9.15
7/12/2021 11:00:00 AM 0 32 0 7.99 4.44 9.03
7/12/2021 11:15:00 AM 0 32 0 7.99 4.47 9.04
7/12/2021 11:30:00 AM 0 32 0 7.98 4.14 9.03
7/12/2021 11:45:00 AM 0 32 0 7.98 4.13 9.01
7/12/2021 12:00:00 PM 0 32 0 7.98 4.09 9.04
7/12/2021 12:15:00 PM 0 32 0 8.01 4.13 9.13
7/12/2021 12:30:00 PM 0 32 0 8.02 4.04 9.15
7/12/2021 12:45:00 PM 0 32 0 8.08 4 9.24
7/12/2021 1:00:00 PM 0 32 0 8.08 4.14 9.28
7/12/2021 1:15:00 PM 0 32 0 8.05 4 9.2
7/12/2021 1:30:00 PM 0 32 0 8.08 4.11 9.29
7/12/2021 1:45:00 PM 0 32 0 8.09 3.92 9.32
7/12/2021 2:00:00 PM 0 32 0 8.08 3.85 9.26
7/12/2021 2:15:00 PM 0 32 0 8.09 3.89 9.27
7/12/2021 2:30:00 PM 0 32 0 8.1 3.72 9.28
7/12/2021 2:45:00 PM 0 32 0 8.14 3.57 9.36
7/12/2021 3:00:00 PM 0 32 0 8.15 3.87 9.37
7/12/2021 3:15:00 PM 0 32 0 8.25 3.81 9.62
7/12/2021 3:30:00 PM 0 32 0 8.36 3.74 9.79
7/12/2021 3:45:00 PM 0 32 0 8.41 3.61 9.8
7/12/2021 4:00:00 PM 0 32 0 8.48 3.67 9.94
7/12/2021 4:15:00 PM 0 32 0 8.55 3.55 10.01
7/12/2021 4:30:00 PM 0 32 0 8.48 3.6 9.73
7/12/2021 4:45:00 PM 0 32 0 8.46 3.49 9.69
7/12/2021 5:00:00 PM 0 32 0 8.46 3.53 9.71
7/12/2021 5:15:00 PM 0 32 0 8.48 3.66 9.68
7/12/2021 5:30:00 PM 0 32 0 8.34 3.44 9.24
7/12/2021 5:45:00 PM 0 32 0 8.31 3.42 9.24
7/12/2021 6:00:00 PM 0 32 0 8.24 3.63 9.13
7/12/2021 6:15:00 PM 0 32 0 8.18 3.51 9
7/12/2021 6:30:00 PM 0 32 0 8.11 3.38 8.89
7/12/2021 6:45:00 PM 0 32 0 8.05 3.46 8.81
7/12/2021 7:00:00 PM 0 32 0 8 3.27 8.73
7/12/2021 7:15:00 PM 0 32 0 7.99 3.22 8.73
7/12/2021 7:30:00 PM 0 32 0 7.96 3.25 8.67
7/12/2021 7:45:00 PM 0 32 0 7.91 3.09 8.61
7/12/2021 8:00:00 PM 0 32 0 7.88 3.13 8.51
7/12/2021 8:15:00 PM 0 32 0 7.84 3.06 8.46
7/12/2021 8:30:00 PM 0 32 0 7.78 3.28 8.36
7/12/2021 8:45:00 PM 0 32 0 7.76 3.26 8.29
7/12/2021 9:00:00 PM 0 32 0 7.73 3.25 8.23
7/12/2021 9:15:00 PM 0 32 0 7.71 3.41 8.19
7/12/2021 9:30:00 PM 0 32 0 7.7 3.48 8.18
7/12/2021 9:45:00 PM 0 32 0 7.69 3.32 8.17
7/12/2021 10:00:00 PM 0 32 0 7.69 3.38 8.16
7/12/2021 10:15:00 PM 0 32 0 7.7 3.28 8.17
7/12/2021 10:30:00 PM 0 32 0 7.7 3.18 8.17
7/12/2021 10:45:00 PM 0 32 0 7.7 3.17 8.16
7/12/2021 11:00:00 PM 0 32 0 7.7 3.23 8.18
7/12/2021 11:15:00 PM 0 32 0 7.7 3.19 8.17
7/12/2021 11:30:00 PM 0 32 0 7.7 3.17 8.17
7/12/2021 11:45:00 PM 0 32 0 7.71 3.11 8.18
7/13/2021 12:00:00 AM 0 32 0 7.71 3.13 8.18
7/13/2021 12:15:00 AM 0 32 0 7.71 3.15 8.18
7/13/2021 12:30:00 AM 0 32 0 7.73 3.13 8.19
7/13/2021 12:45:00 AM 0 32 0 7.73 3.15 8.17
7/13/2021 1:00:00 AM 0 32 0 7.74 3.05 8.18
7/13/2021 1:15:00 AM 0 32 0 7.74 3.07 8.19
7/13/2021 1:30:00 AM 0 32 0 7.74 3.04 8.2
7/13/2021 1:45:00 AM 0 32 0 7.75 3 8.2
7/13/2021 2:00:00 AM 0 32 0 7.75 2.94 8.19
7/13/2021 2:15:00 AM 0 32 0 7.75 3.18 8.18
7/13/2021 2:30:00 AM 0 32 0 7.75 2.93 8.17
7/13/2021 2:45:00 AM 0 32 0 7.76 3.14 8.18
7/13/2021 3:00:00 AM 0 32 0 7.76 3.19 8.19
7/13/2021 3:15:00 AM 0 32 0 7.75 2.89 8.19
7/13/2021 3:30:00 AM 0 32 0 7.75 2.92 8.19
7/13/2021 3:45:00 AM 0 32 0 7.75 2.93 8.19
7/13/2021 4:00:00 AM 0 32 0 7.75 3.07 8.19
7/13/2021 4:15:00 AM 0 32 0 7.75 3.15 8.18
7/13/2021 4:30:00 AM 0 32 0 7.74 3.05 8.18
7/13/2021 4:45:00 AM 0 32 0 7.73 3.01 8.18
7/13/2021 5:00:00 AM 0 32 0 7.73 3.04 8.18
7/13/2021 5:15:00 AM 0 32 0 7.72 3.24 8.18
7/13/2021 5:30:00 AM 0 32 0 7.73 2.99 8.2
7/13/2021 5:45:00 AM 0 32 0 7.73 3.09 8.2
7/13/2021 6:00:00 AM 0 32 0 7.73 2.79 8.22
7/13/2021 6:15:00 AM 0 32 0 7.75 2.72 8.28
7/13/2021 6:30:00 AM 0 32 0 7.76 2.72 8.32
7/13/2021 6:45:00 AM 0 32 0 7.78 2.62 8.4
7/13/2021 7:00:00 AM 0 32 0 7.82 2.59 8.54
7/13/2021 7:15:00 AM 0 32 0 7.85 2.41 8.65
7/13/2021 7:30:00 AM 0 32 0 7.89 2.43 8.81
7/13/2021 7:45:00 AM 0 32 0 7.93 2.46 8.93
7/13/2021 8:00:00 AM 0 32 0 7.92 2.49 8.86
7/13/2021 8:15:00 AM 0 32 0 7.96 2.28 8.96
7/13/2021 8:30:00 AM 0 32 0 7.98 2.38 9
7/13/2021 8:45:00 AM 0 32 0 8.03 2.43 9.16
7/13/2021 9:00:00 AM 0 32 0 8.12 2.52 9.43
7/13/2021 9:15:00 AM 0 32 0 8.23 2.38 9.68
7/13/2021 9:30:00 AM 0 32 0 8.36 2.28 9.92
7/13/2021 9:45:00 AM 0 32 0 8.42 2.31 9.96
7/13/2021 10:00:00 AM 0 32 0 8.48 2.34 10.05
7/13/2021 10:15:00 AM 0 32 0 8.49 2.42 9.9
7/13/2021 10:30:00 AM 0 32 0 8.55 2.28 10.06
7/13/2021 10:45:00 AM 0 32 0 8.64 2.3 10.25
7/13/2021 11:00:00 AM 0 32 0 8.69 2.31 10.29
7/13/2021 11:15:00 AM 0 32 0 8.72 2.43 10.31
7/13/2021 11:30:00 AM 0 32 0 8.75 2.41 10.32
7/13/2021 11:45:00 AM 0 32 0 8.77 2.23 10.34
7/13/2021 12:00:00 PM 0 32 0 8.82 2.29 10.47
7/13/2021 12:15:00 PM 0 32 0 8.86 2.47 10.47
7/13/2021 12:30:00 PM 0 32 0 8.89 2.25 10.5
7/13/2021 12:45:00 PM 0 32 0 8.89 2.31 10.37
7/13/2021 1:00:00 PM 0 32 0 8.92 2.16 10.42
7/13/2021 1:15:00 PM 0 32 0 8.93 2.29 10.4
7/13/2021 1:30:00 PM 0 32 0 8.95 2.22 10.44
7/13/2021 1:45:00 PM 0 32 0 8.98 2.25 10.42
7/13/2021 2:00:00 PM 0 32 0 8.98 2.24 10.38
7/13/2021 2:15:00 PM 0 32 0 9 2.38 10.39
7/13/2021 2:30:00 PM 0 32 0 9.01 2.3 10.36
7/13/2021 2:45:00 PM 0 32 0 8.95 2.08 9.98
7/13/2021 3:00:00 PM 0 32 0 9 2.13 10.22
7/13/2021 3:15:00 PM 0 32 0 8.97 2.34 10
7/13/2021 3:30:00 PM 0 32 0 8.88 2.13 9.56
7/13/2021 3:45:00 PM 0 32 0 8.95 2.15 9.95
7/13/2021 4:00:00 PM 0 32 0 8.87 2.12 9.55
7/13/2021 4:15:00 PM 0 32 0 8.62 2.13 8.7
7/13/2021 4:30:00 PM 0 32 0 8.57 2.21 8.74
7/13/2021 4:45:00 PM 0 32 0 8.52 2.04 8.76
7/13/2021 5:00:00 PM 0 32 0 8.5 2.31 8.86
7/13/2021 5:15:00 PM 0 32 0 8.53 2.08 9.02
7/13/2021 5:30:00 PM 0 32 0 8.59 2.03 9.29
7/13/2021 5:45:00 PM 0 32 0 8.57 2.06 9.17
7/13/2021 6:00:00 PM 0 32 0 8.53 2.09 9.09
7/13/2021 6:15:00 PM 0 32 0 8.53 2.24 9.13
7/13/2021 6:30:00 PM 0 32 0 8.47 2.19 8.96
7/13/2021 6:45:00 PM 0 32 0 8.41 2.05 8.86
7/13/2021 7:00:00 PM 0 32 0 8.33 2.07 8.65
7/13/2021 7:15:00 PM 0 32 0 8.21 2.19 8.39
7/13/2021 7:30:00 PM 0 32 0 8.11 2.28 8.22
7/13/2021 7:45:00 PM 0 32 0 8.03 2.36 8.09
7/13/2021 8:00:00 PM 0 32 0 7.98 2.47 7.98
7/13/2021 8:15:00 PM 0 32 0 7.9 2.38 7.86
7/13/2021 8:30:00 PM 0 32 0 7.87 2.34 7.78
7/13/2021 8:45:00 PM 0 32 0 7.83 2.37 7.71
7/13/2021 9:00:00 PM 0 32 0 7.8 2.61 7.68
7/13/2021 9:15:00 PM 0 32 0 7.79 2.66 7.66
7/13/2021 9:30:00 PM 0 32 0 7.78 2.67 7.66
7/13/2021 9:45:00 PM 0 32 0 7.77 2.4 7.66
7/13/2021 10:00:00 PM 0 32 0 7.77 2.39 7.68
7/13/2021 10:15:00 PM 0 32 0 7.77 2.29 7.7
7/13/2021 10:30:00 PM 0 32 0 7.8 3.04 7.86
7/13/2021 10:45:00 PM 0 32 0 7.78 1179.9 7.86
7/13/2021 11:00:00 PM 0 32 0 7.76 30.46 7.86
7/13/2021 11:15:00 PM 0 32 0 7.74 17.49 7.8
7/13/2021 11:30:00 PM 0 32 0 7.74 13.34 7.79
7/13/2021 11:45:00 PM 0 32 0 7.75 9.42 7.85
7/14/2021 12:00:00 AM 0 32 0 7.75 9.72 7.92
7/14/2021 12:15:00 AM 0 32 0 7.75 22.8 8.03
7/14/2021 12:30:00 AM 0 32 0 7.75 51.06 8.1
7/14/2021 12:45:00 AM 0 32 0 7.75 63.06 8.2
7/14/2021 1:00:00 AM 0 32 0 7.74 63.62 8.23
7/14/2021 1:15:00 AM 0 32 0 7.75 55.5 8.27
7/14/2021 1:30:00 AM 0 32 0 7.77 86.75 8.3
7/14/2021 1:45:00 AM 0 32 0 7.84 88.66 8.32
7/14/2021 2:00:00 AM 0 32 0 7.84 78.11 8.32
7/14/2021 2:15:00 AM 0 32 0 7.84 76.21 8.34
7/14/2021 2:30:00 AM 0 32 0 7.84 75.79 8.34
7/14/2021 2:45:00 AM 0 32 0 7.82 102.57 8.34
7/14/2021 3:00:00 AM 18.81 65.858 0.167 7.81 58.38 8.48
7/14/2021 3:15:00 AM 18.79 65.82201 0.166 7.8 49.34 8.47
7/14/2021 3:30:00 AM 18.76 65.768 0.165 7.8 44.43 8.48
7/14/2021 3:45:00 AM 18.72 65.696 0.164 7.77 38 8.48
7/14/2021 4:00:00 AM 18.68 65.624 0.164 7.77 40.25 8.49
7/14/2021 4:15:00 AM 18.66 65.588 0.163 7.77 29.78 8.49
7/14/2021 4:30:00 AM 18.64 65.552 0.163 7.76 27.4 8.48
7/14/2021 4:45:00 AM 0 32 0 7.77 27.83 8.52
7/14/2021 5:00:00 AM 0 32 0 7.76 29.02 8.34
7/14/2021 5:15:00 AM 0 32 0 7.75 27.76 8.33
7/14/2021 5:30:00 AM 0 32 0 7.74 28.67 8.34
7/14/2021 5:45:00 AM 0 32 0 7.75 29.99 8.34
7/14/2021 6:00:00 AM 0 32 0 7.75 29.77 8.34
7/14/2021 6:15:00 AM 0 32 0 7.74 25.36 8.35
7/14/2021 6:30:00 AM 0 32 0 7.74 23.52 8.39
7/14/2021 6:45:00 AM 0 32 0 7.75 22.89 8.41
7/14/2021 7:00:00 AM 0 32 0 7.74 21.09 8.41
7/14/2021 7:15:00 AM 0 32 0 7.72 19.97 8.43
7/14/2021 7:30:00 AM 0 32 0 7.73 16.65 8.49
7/14/2021 7:45:00 AM 0 32 0 7.74 17.76 8.54
7/14/2021 8:00:00 AM 0 32 0 7.77 15.57 8.54
7/14/2021 8:15:00 AM 0 32 0 7.81 16.1 8.57
7/14/2021 8:30:00 AM 0 32 0 7.84 15.21 8.63
7/14/2021 8:45:00 AM 0 32 0 7.89 14.38 8.72
7/14/2021 9:00:00 AM 0 32 0 7.91 13.69 8.72
7/14/2021 9:15:00 AM 0 32 0 7.92 13.05 8.71
7/14/2021 9:30:00 AM 0 32 0 7.92 12.28 8.67
7/14/2021 9:45:00 AM 0 32 0 7.93 11.66 8.67
7/14/2021 10:00:00 AM 0 32 0 7.98 11.33 8.78
7/14/2021 10:15:00 AM 0 32 0 8.04 10.64 8.9
7/14/2021 10:30:00 AM 0 32 0 8.06 10.12 8.95
7/14/2021 10:45:00 AM 0 32 0 8.09 9.61 8.94
7/14/2021 11:00:00 AM 0 32 0 8.09 9.46 8.88
7/14/2021 11:15:00 AM 0 32 0 8.04 9.22 8.72
7/14/2021 11:30:00 AM 0 32 0 8.06 8.96 8.73
7/14/2021 11:45:00 AM 0 32 0 8.11 8.72 8.87
7/14/2021 12:00:00 PM 0 32 0 8.13 8.52 8.87
7/14/2021 12:15:00 PM 0 32 0 8.17 8.2 9.02
7/14/2021 12:30:00 PM 0 32 0 8.13 7.81 8.86
7/14/2021 12:45:00 PM 0 32 0 8.14 7.47 8.91
7/14/2021 1:00:00 PM 0 32 0 8.22 7.6 9.02
7/14/2021 1:15:00 PM 0 32 0 8.09 7.94 8.65
7/14/2021 1:30:00 PM 0 32 0 8.09 10.31 8.72
7/14/2021 1:45:00 PM 0 32 0 8 21.18 8.42
7/14/2021 2:00:00 PM 0 32 0 7.97 14.24 8.37
7/14/2021 2:15:00 PM 0 32 0 7.93 10.64 8.31
7/14/2021 2:30:00 PM 0 32 0 7.89 11.13 8.28
7/14/2021 2:45:00 PM 0 32 0 7.89 10.5 8.32
7/14/2021 3:00:00 PM 0 32 0 7.88 9.66 8.41
7/14/2021 3:15:00 PM 0 32 0 7.95 10.35 8.66
7/14/2021 3:30:00 PM 0 32 0 7.99 11.28 8.76
7/14/2021 3:45:00 PM 0 32 0 7.97 10.76 8.69
7/14/2021 4:00:00 PM 0 32 0 8.04 10.04 8.86
7/14/2021 4:15:00 PM 0 32 0 8.07 9.23 8.94
7/14/2021 4:30:00 PM 0 32 0 8.11 9.55 8.91
7/14/2021 4:45:00 PM 0 32 0 8.15 9.73 8.95
7/14/2021 5:00:00 PM 0 32 0 8.16 9.93 8.89
7/14/2021 5:15:00 PM 0 32 0 8.14 10.32 8.79
7/14/2021 5:30:00 PM 0 32 0 8.11 12.1 8.71
7/14/2021 5:45:00 PM 0 32 0 8.05 12.26 8.53
7/14/2021 6:00:00 PM 0 32 0 7.98 11.48 8.41
7/14/2021 6:15:00 PM 0 32 0 7.96 11.09 8.41
7/14/2021 6:30:00 PM 0 32 0 7.99 10.53 8.54
7/14/2021 6:45:00 PM 0 32 0 7.96 9.83 8.52
7/14/2021 7:00:00 PM 0 32 0 7.93 9.38 8.44
7/14/2021 7:15:00 PM 0 32 0 7.89 8.83 8.38
7/14/2021 7:30:00 PM 0 32 0 7.87 8.74 8.32
7/14/2021 7:45:00 PM 0 32 0 7.85 8.36 8.3
7/14/2021 8:00:00 PM 0 32 0 7.82 8.14 8.26
7/14/2021 8:15:00 PM 0 32 0 7.8 7.52 8.23
7/14/2021 8:30:00 PM 0 32 0 7.78 7.53 8.19
7/14/2021 8:45:00 PM 0 32 0 7.76 8.15 8.16
7/14/2021 9:00:00 PM 0 32 0 7.74 7.43 8.15
7/14/2021 9:15:00 PM 0 32 0 7.73 7.34 8.13
7/14/2021 9:30:00 PM 0 32 0 7.72 7.32 8.13
7/14/2021 9:45:00 PM 0 32 0 7.7 7.11 8.14
7/14/2021 10:00:00 PM 0 32 0 7.7 6.77 8.13
7/14/2021 10:15:00 PM 0 32 0 7.69 6.55 8.15
7/14/2021 10:30:00 PM 0 32 0 7.69 6.65 8.15
7/14/2021 10:45:00 PM 0 32 0 7.69 6.33 8.16
7/14/2021 11:00:00 PM 0 32 0 7.69 6.5 8.16
7/14/2021 11:15:00 PM 0 32 0 7.69 6.8 8.17
7/14/2021 11:30:00 PM 0 32 0 7.7 6.55 8.17
7/14/2021 11:45:00 PM 0 32 0 7.69 6.33 8.17
7/15/2021 12:00:00 AM 0 32 0 7.69 6.24 8.19
7/15/2021 12:15:00 AM 0 32 0 7.69 6.14 8.18
7/15/2021 12:30:00 AM 0 32 0 7.69 6.05 8.2
7/15/2021 12:45:00 AM 0 32 0 7.7 5.89 8.2
7/15/2021 1:00:00 AM 0 32 0 7.69 6.05 8.2
7/15/2021 1:15:00 AM 0 32 0 7.68 5.64 8.2
7/15/2021 1:30:00 AM 0 32 0 7.68 5.7 8.21
7/15/2021 1:45:00 AM 0 32 0 7.69 5.76 8.23
7/15/2021 2:00:00 AM 0 32 0 7.69 5.77 8.22
7/15/2021 2:15:00 AM 0 32 0 7.68 5.79 8.22
7/15/2021 2:30:00 AM 0 32 0 7.67 5.66 8.24
7/15/2021 2:45:00 AM 0 32 0 7.68 6.33 8.24
7/15/2021 3:00:00 AM 0 32 0 7.68 5.6 8.24
7/15/2021 3:15:00 AM 0 32 0 7.68 5.85 8.24
7/15/2021 3:30:00 AM 0 32 0 7.69 5.72 8.25
7/15/2021 3:45:00 AM 0 32 0 7.69 5.54 8.25
7/15/2021 4:00:00 AM 0 32 0 7.69 5.63 8.25
7/15/2021 4:15:00 AM 0 32 0 7.69 5.53 8.25
7/15/2021 4:30:00 AM 0 32 0 7.69 5.45 8.26
7/15/2021 4:45:00 AM 0 32 0 7.69 5.51 8.25
7/15/2021 5:00:00 AM 0 32 0 7.68 5.43 8.25
7/15/2021 5:15:00 AM 0 32 0 7.69 5.64 8.25
7/15/2021 5:30:00 AM 0 32 0 7.69 5.51 8.25
7/15/2021 5:45:00 AM 0 32 0 7.69 5.66 8.27
7/15/2021 6:00:00 AM 0 32 0 7.68 5.05 8.28
7/15/2021 6:15:00 AM 0 32 0 7.7 5.17 8.32
7/15/2021 6:30:00 AM 0 32 0 7.71 5.12 8.35
7/15/2021 6:45:00 AM 0 32 0 7.72 5.02 8.4
7/15/2021 7:00:00 AM 0 32 0 7.73 4.79 8.47
7/15/2021 7:15:00 AM 0 32 0 7.76 4.6 8.53
7/15/2021 7:30:00 AM 0 32 0 7.8 4.5 8.63
7/15/2021 7:45:00 AM 0 32 0 7.83 4.2 8.72
7/15/2021 8:00:00 AM 0 32 0 7.87 4.35 8.8
7/15/2021 8:15:00 AM 0 32 0 7.92 4.29 8.91
7/15/2021 8:30:00 AM 0 32 0 7.94 4.07 8.97
7/15/2021 8:45:00 AM 0 32 0 8 4.25 9.06
7/15/2021 9:00:00 AM 0 32 0 8.04 3.93 9.13
7/15/2021 9:15:00 AM 0 32 0 8.1 3.92 9.22
7/15/2021 9:30:00 AM 0 32 0 8.13 3.87 9.25
7/15/2021 9:45:00 AM 0 32 0 8.17 3.92 9.29
7/15/2021 10:00:00 AM 0 32 0 8.22 3.74 9.35
7/15/2021 10:15:00 AM 0 32 0 8.25 3.61 9.38
7/15/2021 10:30:00 AM 0 32 0 8.27 3.68 9.32
7/15/2021 10:45:00 AM 0 32 0 8.31 3.6 9.39
7/15/2021 11:00:00 AM 0 32 0 8.36 3.67 9.42
7/15/2021 11:15:00 AM 0 32 0 8.42 3.59 9.48
7/15/2021 11:30:00 AM 0 32 0 8.4 3.53 9.37
7/15/2021 11:45:00 AM 0 32 0 8.4 3.54 9.36
7/15/2021 12:00:00 PM 0 32 0 8.41 3.52 9.3
7/15/2021 12:15:00 PM 0 32 0 8.38 3.45 9.16
7/15/2021 12:30:00 PM 0 32 0 8.45 3.29 9.32
7/15/2021 12:45:00 PM 0 32 0 8.43 3.46 9.22
7/15/2021 1:00:00 PM 0 32 0 8.41 3.29 9.15
7/15/2021 1:15:00 PM 0 32 0 8.31 3.54 8.88
7/15/2021 1:30:00 PM 0 32 0 8.39 3.32 9.14
7/15/2021 1:45:00 PM 0 32 0 8.34 3.44 8.89
7/15/2021 2:00:00 PM 0 32 0 8.35 3.37 8.9
7/15/2021 2:15:00 PM 0 32 0 8.38 3.48 9.03
7/15/2021 2:30:00 PM 0 32 0 8.49 3.25 9.26
7/15/2021 2:45:00 PM 0 32 0 8.51 3.55 9.24
7/15/2021 3:00:00 PM 0 32 0 8.5 3.31 9.14
7/15/2021 3:15:00 PM 0 32 0 8.51 3.39 9.13
7/15/2021 3:30:00 PM 0 32 0 8.48 3.35 9.06
7/15/2021 3:45:00 PM 0 32 0 8.51 3.45 9.11
7/15/2021 4:00:00 PM 0 32 0 8.58 3.17 9.22
7/15/2021 4:15:00 PM 0 32 0 8.57 3.49 9.13
7/15/2021 4:30:00 PM 0 32 0 8.58 3.42 9.12
7/15/2021 4:45:00 PM 0 32 0 8.58 3.36 9.12
7/15/2021 5:00:00 PM 0 32 0 8.57 3.41 9.08
7/15/2021 5:15:00 PM 0 32 0 8.54 3.47 8.98
7/15/2021 5:30:00 PM 0 32 0 8.5 3.3 8.89
7/15/2021 5:45:00 PM 0 32 0 8.45 3.3 8.83
7/15/2021 6:00:00 PM 0 32 0 8.41 3.3 8.75
7/15/2021 6:15:00 PM 0 32 0 8.35 3.43 8.62
7/15/2021 6:30:00 PM 0 32 0 8.25 3.16 8.44
7/15/2021 6:45:00 PM 0 32 0 8.16 3.29 8.28
7/15/2021 7:00:00 PM 0 32 0 8.1 3.16 8.18
7/15/2021 7:15:00 PM 0 32 0 8.04 3.23 8.08
7/15/2021 7:30:00 PM 0 32 0 8 3.25 8.05
7/15/2021 7:45:00 PM 0 32 0 7.97 3.15 8.05
7/15/2021 8:00:00 PM 0 32 0 7.92 3.01 7.99
7/15/2021 8:15:00 PM 0 32 0 7.88 3.39 7.89
7/15/2021 8:30:00 PM 0 32 0 7.83 3.33 7.82
7/15/2021 8:45:00 PM 0 32 0 7.79 3.23 7.76
7/15/2021 9:00:00 PM 0 32 0 7.76 3.18 7.73
7/15/2021 9:15:00 PM 0 32 0 7.75 3.23 7.72
7/15/2021 9:30:00 PM 0 32 0 7.73 3.38 7.72
7/15/2021 9:45:00 PM 0 32 0 7.72 3.31 7.73
7/15/2021 10:00:00 PM 0 32 0 7.72 3.24 7.73
7/15/2021 10:15:00 PM 0 32 0 7.71 3.27 7.74
7/15/2021 10:30:00 PM 0 32 0 7.7 3.18 7.76
7/15/2021 10:45:00 PM 0 32 0 7.7 3.4 7.77
7/15/2021 11:00:00 PM 0 32 0 7.69 4.51 7.79
7/15/2021 11:15:00 PM 0 32 0 7.7 3.96 7.8
7/15/2021 11:30:00 PM 0 32 0 7.7 4.6 7.8
7/15/2021 11:45:00 PM 0 32 0 7.7 3.07 7.82
7/16/2021 12:00:00 AM 0 32 0 7.71 3.05 7.83
7/16/2021 12:15:00 AM 0 32 0 7.72 3.14 7.84
7/16/2021 12:30:00 AM 0 32 0 7.72 3.1 7.85
7/16/2021 12:45:00 AM 0 32 0 7.71 3.04 7.85
7/16/2021 1:00:00 AM 0 32 0 7.7 3.05 7.86
7/16/2021 1:15:00 AM 0 32 0 7.7 3.02 7.87
7/16/2021 1:30:00 AM 0 32 0 7.71 3.04 7.88
7/16/2021 1:45:00 AM 0 32 0 7.7 3.12 7.88
7/16/2021 2:00:00 AM 0 32 0 7.7 3.23 7.9
7/16/2021 2:15:00 AM 0 32 0 7.71 2.91 7.9
7/16/2021 2:30:00 AM 0 32 0 7.71 2.97 7.9
7/16/2021 2:45:00 AM 0 32 0 7.71 3.24 7.92
7/16/2021 3:00:00 AM 0 32 0 7.71 3.49 7.92
7/16/2021 3:15:00 AM 0 32 0 7.71 3.19 7.92
7/16/2021 3:30:00 AM 0 32 0 7.71 3.35 7.92
7/16/2021 3:45:00 AM 0 32 0 7.71 3.38 7.93
7/16/2021 4:00:00 AM 0 32 0 7.71 3.31 7.93
7/16/2021 4:15:00 AM 0 32 0 7.72 3.22 7.95
7/16/2021 4:30:00 AM 0 32 0 7.72 3.08 7.95
7/16/2021 4:45:00 AM 0 32 0 7.72 3.18 7.95
7/16/2021 5:00:00 AM 0 32 0 7.72 3.22 7.95
7/16/2021 5:15:00 AM 0 32 0 7.71 3.25 7.97
7/16/2021 5:30:00 AM 0 32 0 7.71 3.24 7.96
7/16/2021 5:45:00 AM 0 32 0 7.72 3.23 7.98
7/16/2021 6:00:00 AM 0 32 0 7.72 3.11 8.03
7/16/2021 6:15:00 AM 0 32 0 7.72 2.97 8.09
7/16/2021 6:30:00 AM 0 32 0 7.75 2.87 8.17
7/16/2021 6:45:00 AM 0 32 0 7.76 2.99 8.28
7/16/2021 7:00:00 AM 0 32 0 7.79 2.74 8.41
7/16/2021 7:15:00 AM 0 32 0 7.84 2.75 8.6
7/16/2021 7:30:00 AM 0 32 0 7.87 2.63 8.67
7/16/2021 7:45:00 AM 0 32 0 7.85 2.81 8.56
7/16/2021 8:00:00 AM 0 32 0 7.94 2.66 8.86
7/16/2021 8:15:00 AM 0 32 0 8.01 2.59 9.04
7/16/2021 8:30:00 AM 0 32 0 8.11 2.62 9.21
7/16/2021 8:45:00 AM 0 32 0 8.12 2.7 9.17
7/16/2021 9:00:00 AM 0 32 0 8.16 2.53 9.18
7/16/2021 9:15:00 AM 0 32 0 8.13 2.57 9.01
7/16/2021 9:30:00 AM 0 32 0 8.24 2.67 9.33
7/16/2021 9:45:00 AM 0 32 0 8.22 2.6 9.15
7/16/2021 10:00:00 AM 0 32 0 8.15 2.54 8.96
7/16/2021 10:15:00 AM 0 32 0 8.31 2.5 9.36
7/16/2021 10:30:00 AM 0 32 0 8.34 2.79 9.39
7/16/2021 10:45:00 AM 0 32 0 8.35 2.42 9.4
7/16/2021 11:00:00 AM 0 32 0 8.41 2.54 9.5
7/16/2021 11:15:00 AM 0 32 0 8.49 2.39 9.67
7/16/2021 11:30:00 AM 0 32 0 8.51 2.46 9.64
7/16/2021 11:45:00 AM 0 32 0 8.52 2.45 9.64
7/16/2021 12:00:00 PM 0 32 0 8.45 2.65 9.4
7/16/2021 12:15:00 PM 0 32 0 8.47 2.54 9.5
7/16/2021 12:30:00 PM 0 32 0 8.46 2.32 9.46
7/16/2021 12:45:00 PM 0 32 0 8.49 2.38 9.53
7/16/2021 1:00:00 PM 0 32 0 8.42 2.35 9.33
7/16/2021 1:15:00 PM 0 32 0 8.46 2.3 9.46
7/16/2021 1:30:00 PM 0 32 0 8.49 2.27 9.55
7/16/2021 1:45:00 PM 0 32 0 8.48 2.38 9.5
7/16/2021 2:00:00 PM 0 32 0 8.51 2.35 9.59
7/16/2021 2:15:00 PM 0 32 0 8.55 2.38 9.63
7/16/2021 2:30:00 PM 0 32 0 8.59 2.36 9.7
7/16/2021 2:45:00 PM 0 32 0 8.66 2.39 9.86
7/16/2021 3:00:00 PM 0 32 0 8.73 2.29 9.93
7/16/2021 3:15:00 PM 0 32 0 8.73 2.33 9.84
7/16/2021 3:30:00 PM 0 32 0 8.72 2.25 9.76
7/16/2021 3:45:00 PM 0 32 0 8.69 2.18 9.64
7/16/2021 4:00:00 PM 0 32 0 8.67 2.3 9.58
7/16/2021 4:15:00 PM 0 32 0 8.7 2.37 9.66
7/16/2021 4:30:00 PM 0 32 0 8.65 2.42 9.44
7/16/2021 4:45:00 PM 0 32 0 8.67 2.42 9.55
7/16/2021 5:00:00 PM 0 32 0 8.61 2.4 9.36
7/16/2021 5:15:00 PM 0 32 0 8.63 2.27 9.46
7/16/2021 5:30:00 PM 0 32 0 8.58 2.53 9.24
7/16/2021 5:45:00 PM 0 32 0 8.5 2.51 9.04
7/16/2021 6:00:00 PM 0 32 0 8.42 2.3 8.9
7/16/2021 6:15:00 PM 0 32 0 8.36 2.34 8.86
7/16/2021 6:30:00 PM 0 32 0 8.38 2.34 8.96
7/16/2021 6:45:00 PM 0 32 0 8.3 2.29 8.8
7/16/2021 7:00:00 PM 0 32 0 8.25 2.32 8.73
7/16/2021 7:15:00 PM 0 32 0 8.13 2.17 8.45
7/16/2021 7:30:00 PM 0 32 0 8.06 2.15 8.35
7/16/2021 7:45:00 PM 0 32 0 7.98 2.17 8.18
7/16/2021 8:00:00 PM 0 32 0 7.93 2.21 8.09
7/16/2021 8:15:00 PM 0 32 0 7.9 2.26 8
7/16/2021 8:30:00 PM 0 32 0 7.85 2.45 7.92
7/16/2021 8:45:00 PM 0 32 0 7.83 2.55 7.87
7/16/2021 9:00:00 PM 0 32 0 7.8 2.35 7.84
7/16/2021 9:15:00 PM 0 32 0 7.79 2.53 7.81
7/16/2021 9:30:00 PM 0 32 0 7.77 2.5 7.81
7/16/2021 9:45:00 PM 0 32 0 7.76 2.4 7.82
7/16/2021 10:00:00 PM 0 32 0 7.75 2.59 7.81
7/16/2021 10:15:00 PM 0 32 0 7.76 2.37 7.82
7/16/2021 10:30:00 PM 0 32 0 7.75 2.44 7.82
7/16/2021 10:45:00 PM 0 32 0 7.76 2.4 7.84
7/16/2021 11:00:00 PM 0 32 0 7.75 2.4 7.84
7/16/2021 11:15:00 PM 0 32 0 7.75 2.34 7.85
7/16/2021 11:30:00 PM 0 32 0 7.74 2.41 7.85
7/16/2021 11:45:00 PM 0 32 0 7.74 2.59 7.87
7/17/2021 12:00:00 AM 0 32 0 7.75 2.37 7.87
7/17/2021 12:15:00 AM 0 32 0 7.75 2.33 7.89
7/17/2021 12:30:00 AM 0 32 0 7.75 2.55 7.89
7/17/2021 12:45:00 AM 0 32 0 7.75 2.47 7.88
7/17/2021 1:00:00 AM 0 32 0 7.75 2.53 7.9
7/17/2021 1:15:00 AM 0 32 0 7.76 2.53 7.9
7/17/2021 1:30:00 AM 0 32 0 7.75 2.49 7.91
7/17/2021 1:45:00 AM 0 32 0 7.75 2.39 7.92
7/17/2021 2:00:00 AM 0 32 0 7.75 2.58 7.92
7/17/2021 2:15:00 AM 0 32 0 7.75 2.52 7.93
7/17/2021 2:30:00 AM 0 32 0 7.76 2.45 7.93
7/17/2021 2:45:00 AM 0 32 0 7.75 2.48 7.94
7/17/2021 3:00:00 AM 0 32 0 7.76 2.49 7.94
7/17/2021 3:15:00 AM 0 32 0 7.74 2.63 7.94
7/17/2021 3:30:00 AM 0 32 0 7.75 2.48 7.94
7/17/2021 3:45:00 AM 0 32 0 7.75 2.55 7.96
7/17/2021 4:00:00 AM 0 32 0 7.75 2.47 7.96
7/17/2021 4:15:00 AM 0 32 0 7.75 2.41 7.96
7/17/2021 4:30:00 AM 0 32 0 7.75 2.48 7.96
7/17/2021 4:45:00 AM 0 32 0 7.75 2.52 7.98
7/17/2021 5:00:00 AM 0 32 0 7.75 2.6 7.98
7/17/2021 5:15:00 AM 0 32 0 7.76 2.6 7.98
7/17/2021 5:30:00 AM 0 32 0 7.74 2.48 7.98
7/17/2021 5:45:00 AM 0 32 0 7.75 2.56 7.99
7/17/2021 6:00:00 AM 0 32 0 7.75 2.6 8.01
7/17/2021 6:15:00 AM 0 32 0 7.76 2.39 8.05
7/17/2021 6:30:00 AM 0 32 0 7.77 2.44 8.11
7/17/2021 6:45:00 AM 0 32 0 7.79 2.49 8.23
7/17/2021 7:00:00 AM 0 32 0 7.82 2.24 8.3
7/17/2021 7:15:00 AM 0 32 0 7.83 2.25 8.33
7/17/2021 7:30:00 AM 0 32 0 7.88 2.22 8.52
7/17/2021 7:45:00 AM 0 32 0 7.93 2.13 8.69
7/17/2021 8:00:00 AM 0 32 0 8.02 2.3 9
7/17/2021 8:15:00 AM 0 32 0 8.09 2.17 9.16
7/17/2021 8:30:00 AM 0 32 0 8.13 2.08 9.22
7/17/2021 8:45:00 AM 0 32 0 8.16 2.24 9.25
7/17/2021 9:00:00 AM 0 32 0 8.14 2.1 9.12
7/17/2021 9:15:00 AM 0 32 0 8.16 2.24 9.19
7/17/2021 9:30:00 AM 0 32 0 8.21 2.19 9.3
7/17/2021 9:45:00 AM 0 32 0 8.21 2.18 9.26
7/17/2021 10:00:00 AM 0 32 0 8.25 2.37 9.32
7/17/2021 10:15:00 AM 0 32 0 8.34 2.12 9.6
7/17/2021 10:30:00 AM 0 32 0 8.42 2.17 9.75
7/17/2021 10:45:00 AM 0 32 0 8.54 2.16 10
7/17/2021 11:00:00 AM 0 32 0 8.62 2.17 10.15
7/17/2021 11:15:00 AM 0 32 0 8.55 2.2 9.7
7/17/2021 11:30:00 AM 0 32 0 8.51 2.11 9.59
7/17/2021 11:45:00 AM 0 32 0 8.5 2.39 9.59
7/17/2021 12:00:00 PM 0 32 0 8.58 3.66 9.89
7/17/2021 12:15:00 PM 0 32 0 8.64 3.89 9.96
7/17/2021 12:30:00 PM 0 32 0 8.72 2.94 10.18
7/17/2021 12:45:00 PM 0 32 0 8.79 2.49 10.28
7/17/2021 1:00:00 PM 0 32 0 8.84 2.26 10.34
7/17/2021 1:15:00 PM 0 32 0 8.87 2.25 10.32
7/17/2021 1:30:00 PM 0 32 0 8.86 2.33 10.09
7/17/2021 1:45:00 PM 0 32 0 8.84 2.13 9.98
7/17/2021 2:00:00 PM 0 32 0 8.85 2.19 10
7/17/2021 2:15:00 PM 0 32 0 8.81 2.03 9.84
7/17/2021 2:30:00 PM 0 32 0 8.74 2.06 9.6
7/17/2021 2:45:00 PM 0 32 0 8.79 2.04 9.83
7/17/2021 3:00:00 PM 0 32 0 8.84 2.18 10.01
7/17/2021 3:15:00 PM 0 32 0 8.89 2.05 10.09
7/17/2021 3:30:00 PM 0 32 0 8.91 2.05 10.06
7/17/2021 3:45:00 PM 0 32 0 8.91 2 9.92
7/17/2021 4:00:00 PM 0 32 0 8.86 2.12 9.71
7/17/2021 4:15:00 PM 0 32 0 8.81 2.01 9.53
7/17/2021 4:30:00 PM 0 32 0 8.64 1.97 9.02
7/17/2021 4:45:00 PM 0 32 0 8.4 2.08 8.44
7/17/2021 5:00:00 PM 0 32 0 8.25 2.07 8.18
7/17/2021 5:15:00 PM 0 32 0 8.13 2.02 7.98
7/17/2021 5:30:00 PM 0 32 0 8.05 2.01 7.88
7/17/2021 5:45:00 PM 0 32 0 7.98 2.01 7.8
7/17/2021 6:00:00 PM 0 32 0 7.94 2.07 7.79
7/17/2021 6:15:00 PM 0 32 0 7.91 2.05 7.79
7/17/2021 6:30:00 PM 0 32 0 7.9 2.39 7.89
7/17/2021 6:45:00 PM 0 32 0 7.88 2.66 7.88
7/17/2021 7:00:00 PM 0 32 0 7.85 2.65 7.84
7/17/2021 7:15:00 PM 0 32 0 7.84 2.38 7.84
7/17/2021 7:30:00 PM 0 32 0 7.82 2.35 7.82
7/17/2021 7:45:00 PM 0 32 0 7.81 2.45 7.81
7/17/2021 8:00:00 PM 0 32 0 7.79 2.37 7.79
7/17/2021 8:15:00 PM 0 32 0 7.79 2.56 7.81
7/17/2021 8:30:00 PM 0 32 0 7.81 3.79 7.88
7/17/2021 8:45:00 PM 0 32 0 7.86 92.4 7.99
7/17/2021 9:00:00 PM 0 32 0 7.9 89.58 8.02
7/17/2021 9:15:00 PM 0 32 0 7.88 125.12 8.05
7/17/2021 9:30:00 PM 0 32 0 7.81 176.32 8.08
7/17/2021 9:45:00 PM 0 32 0 7.79 166.08 8.09
7/17/2021 10:00:00 PM 0 32 0 7.78 112.72 8.1
7/17/2021 10:15:00 PM 0 32 0 7.77 81.49 8.11
7/17/2021 10:30:00 PM 0 32 0 7.77 59.33 8.14
7/17/2021 10:45:00 PM 0 32 0 7.76 51.01 8.16
7/17/2021 11:00:00 PM 0 32 0 7.76 42.01 8.16
7/17/2021 11:15:00 PM 0 32 0 7.75 37.09 8.14
7/17/2021 11:30:00 PM 0 32 0 7.75 35.48 8.16
7/17/2021 11:45:00 PM 0 32 0 7.75 30.7 8.16
7/18/2021 12:00:00 AM 0 32 0 7.75 32.04 8.15
7/18/2021 12:15:00 AM 0 32 0 7.75 27.82 8.16
7/18/2021 12:30:00 AM 0 32 0 7.75 31.43 8.16
7/18/2021 12:45:00 AM 0 32 0 7.74 27.82 8.16
7/18/2021 1:00:00 AM 0 32 0 7.74 27.24 8.16
7/18/2021 1:15:00 AM 0 32 0 7.73 38 8.15
7/18/2021 1:30:00 AM 0 32 0 7.74 28.66 8.16
7/18/2021 1:45:00 AM 0 32 0 7.74 34.47 8.16
7/18/2021 2:00:00 AM 0 32 0 7.73 38.33 8.15
7/18/2021 2:15:00 AM 0 32 0 7.73 47.31 8.14
7/18/2021 2:30:00 AM 0 32 0 7.72 44.68 8.14
7/18/2021 2:45:00 AM 0 32 0 7.72 36.6 8.13
7/18/2021 3:00:00 AM 0 32 0 7.71 32.87 8.13
7/18/2021 3:15:00 AM 0 32 0 7.7 28.77 8.12
7/18/2021 3:30:00 AM 0 32 0 7.69 26.97 8.13
7/18/2021 3:45:00 AM 0 32 0 7.69 24.25 8.12
7/18/2021 4:00:00 AM 0 32 0 7.68 21.27 8.12
7/18/2021 4:15:00 AM 0 32 0 7.69 19.66 8.14
7/18/2021 4:30:00 AM 0 32 0 7.69 18.17 8.13
7/18/2021 4:45:00 AM 0 32 0 7.68 17.32 8.15
7/18/2021 5:00:00 AM 0 32 0 7.68 12.26 8.15
7/18/2021 5:15:00 AM 0 32 0 7.68 15.31 8.14
7/18/2021 5:30:00 AM 0 32 0 7.68 14.52 8.16
7/18/2021 5:45:00 AM 0 32 0 7.68 13.68 8.15
7/18/2021 6:00:00 AM 0 32 0 7.68 13.02 8.17
7/18/2021 6:15:00 AM 0 32 0 7.69 12.44 8.18
7/18/2021 6:30:00 AM 0 32 0 7.68 11.99 8.18
7/18/2021 6:45:00 AM 0 32 0 7.69 11.6 8.21
7/18/2021 7:00:00 AM 0 32 0 7.7 10.7 8.24
7/18/2021 7:15:00 AM 0 32 0 7.71 9.84 8.26
7/18/2021 7:30:00 AM 0 32 0 7.73 9.63 8.35
7/18/2021 7:45:00 AM 0 32 0 7.75 8.95 8.38
7/18/2021 8:00:00 AM 0 32 0 7.75 8.64 8.4
7/18/2021 8:15:00 AM 0 32 0 7.76 8.06 8.4
7/18/2021 8:30:00 AM 0 32 0 7.77 7.75 8.41
7/18/2021 8:45:00 AM 0 32 0 7.8 7.6 8.5
7/18/2021 9:00:00 AM 0 32 0 7.82 7.33 8.55
7/18/2021 9:15:00 AM 0 32 0 7.82 7.09 8.54
7/18/2021 9:30:00 AM 0 32 0 7.84 6.77 8.58
7/18/2021 9:45:00 AM 0 32 0 7.85 6.74 8.58
7/18/2021 10:00:00 AM 0 32 0 7.87 6.6 8.63
7/18/2021 10:15:00 AM 0 32 0 7.89 6.24 8.69
7/18/2021 10:30:00 AM 0 32 0 7.92 6.08 8.75
7/18/2021 10:45:00 AM 0 32 0 7.98 6.22 8.89
7/18/2021 11:00:00 AM 0 32 0 8 5.78 8.9
7/18/2021 11:15:00 AM 0 32 0 8.03 5.4 8.94
7/18/2021 11:30:00 AM 0 32 0 8.01 5.38 8.83
7/18/2021 11:45:00 AM 0 32 0 8 5.72 8.81
7/18/2021 12:00:00 PM 0 32 0 8.01 5.34 8.85
7/18/2021 12:15:00 PM 0 32 0 8.02 5.25 8.88
7/18/2021 12:30:00 PM 0 32 0 8 5.27 8.82
7/18/2021 12:45:00 PM 0 32 0 8.03 4.99 8.87
7/18/2021 1:00:00 PM 0 32 0 8.04 4.95 8.89
7/18/2021 1:15:00 PM 0 32 0 8.04 4.84 8.89
7/18/2021 1:30:00 PM 0 32 0 8.05 4.81 8.89
7/18/2021 1:45:00 PM 0 32 0 8.08 4.52 8.93
7/18/2021 2:00:00 PM 0 32 0 8.05 4.72 8.84
7/18/2021 2:15:00 PM 0 32 0 8.04 4.6 8.8
7/18/2021 2:30:00 PM 0 32 0 8.05 4.38 8.86
7/18/2021 2:45:00 PM 0 32 0 8.05 4.32 8.84
7/18/2021 3:00:00 PM 0 32 0 8.08 4.48 8.95
7/18/2021 3:15:00 PM 0 32 0 8.12 4.31 9.03
7/18/2021 3:30:00 PM 0 32 0 8.07 4.43 8.88
7/18/2021 3:45:00 PM 0 32 0 8 4.59 8.7
7/18/2021 4:00:00 PM 0 32 0 7.99 4.31 8.71
7/18/2021 4:15:00 PM 0 32 0 7.96 4.21 8.61
7/18/2021 4:30:00 PM 0 32 0 7.95 4.31 8.65
7/18/2021 4:45:00 PM 0 32 0 7.98 4.31 8.78
7/18/2021 5:00:00 PM 0 32 0 7.96 4.23 8.69
7/18/2021 5:15:00 PM 0 32 0 7.98 4.17 8.77
7/18/2021 5:30:00 PM 0 32 0 8.05 4.39 8.9
7/18/2021 5:45:00 PM 0 32 0 8.04 4.3 8.84
7/18/2021 6:00:00 PM 0 32 0 8.04 4.3 8.82
7/18/2021 6:15:00 PM 0 32 0 7.98 4.44 8.7
7/18/2021 6:30:00 PM 0 32 0 7.99 4.24 8.72
7/18/2021 6:45:00 PM 0 32 0 7.99 4.17 8.74
7/18/2021 7:00:00 PM 0 32 0 7.96 4.35 8.68
7/18/2021 7:15:00 PM 0 32 0 7.95 4.19 8.63
7/18/2021 7:30:00 PM 0 32 0 7.92 4.3 8.55
7/18/2021 7:45:00 PM 0 32 0 7.88 4.18 8.46
7/18/2021 8:00:00 PM 0 32 0 7.85 4.04 8.42
7/18/2021 8:15:00 PM 0 32 0 7.82 4.22 8.35
7/18/2021 8:30:00 PM 0 32 0 7.79 4.06 8.31
7/18/2021 8:45:00 PM 0 32 0 7.77 4.14 8.26
7/18/2021 9:00:00 PM 0 32 0 7.75 4.12 8.24
7/18/2021 9:15:00 PM 0 32 0 7.74 4.29 8.23
7/18/2021 9:30:00 PM 0 32 0 7.73 4.5 8.23
7/18/2021 9:45:00 PM 0 32 0 7.72 4.21 8.23
7/18/2021 10:00:00 PM 0 32 0 7.72 4.3 8.24
7/18/2021 10:15:00 PM 0 32 0 7.71 4.05 8.24
7/18/2021 10:30:00 PM 0 32 0 7.71 4.14 8.26
7/18/2021 10:45:00 PM 0 32 0 7.69 4.16 8.26
7/18/2021 11:00:00 PM 0 32 0 7.69 4.16 8.27
7/18/2021 11:15:00 PM 0 32 0 7.68 4.48 8.29
7/18/2021 11:30:00 PM 0 32 0 7.68 4.41 8.29
7/18/2021 11:45:00 PM 0 32 0 7.68 4.39 8.3
7/19/2021 12:00:00 AM 0 32 0 7.68 4.16 8.3
7/19/2021 12:15:00 AM 0 32 0 7.68 4.16 8.31
7/19/2021 12:30:00 AM 0 32 0 7.67 4.42 8.32
7/19/2021 12:45:00 AM 0 32 0 7.68 4.29 8.33
7/19/2021 1:00:00 AM 0 32 0 7.68 4.14 8.33
7/19/2021 1:15:00 AM 0 32 0 7.68 4.2 8.35
7/19/2021 1:30:00 AM 0 32 0 7.68 3.93 8.35
7/19/2021 1:45:00 AM 0 32 0 7.68 4.18 8.36
7/19/2021 2:00:00 AM 0 32 0 7.68 4.1 8.36
7/19/2021 2:15:00 AM 0 32 0 7.68 3.93 8.38
7/19/2021 2:30:00 AM 0 32 0 7.68 4.17 8.38
7/19/2021 2:45:00 AM 0 32 0 7.67 4.1 8.39
7/19/2021 3:00:00 AM 0 32 0 7.67 3.88 8.4
7/19/2021 3:15:00 AM 0 32 0 7.67 4.05 8.41
7/19/2021 3:30:00 AM 0 32 0 7.67 3.93 8.42
7/19/2021 3:45:00 AM 0 32 0 7.66 4.25 8.43
7/19/2021 4:00:00 AM 0 32 0 7.67 4.23 8.43
7/19/2021 4:15:00 AM 0 32 0 7.67 4.22 8.43
7/19/2021 4:30:00 AM 0 32 0 7.67 4.57 8.45
7/19/2021 4:45:00 AM 0 32 0 7.67 4.54 8.45
7/19/2021 5:00:00 AM 0 32 0 7.67 4.9 8.45
7/19/2021 5:15:00 AM 0 32 0 7.67 4.79 8.45
7/19/2021 5:30:00 AM 0 32 0 7.67 4.95 8.47
7/19/2021 5:45:00 AM 0 32 0 7.67 4.78 8.48
7/19/2021 6:00:00 AM 0 32 0 7.67 4.52 8.5
7/19/2021 6:15:00 AM 0 32 0 7.68 4.67 8.53
7/19/2021 6:30:00 AM 0 32 0 7.67 4.27 8.55
7/19/2021 6:45:00 AM 0 32 0 7.7 4.23 8.59
7/19/2021 7:00:00 AM 0 32 0 7.71 4.1 8.63
7/19/2021 7:15:00 AM 0 32 0 7.72 3.85 8.68
7/19/2021 7:30:00 AM 0 32 0 7.76 3.77 8.76
7/19/2021 7:45:00 AM 0 32 0 7.79 3.58 8.88
7/19/2021 8:00:00 AM 0 32 0 7.84 3.43 8.99
7/19/2021 8:15:00 AM 0 32 0 7.88 3.39 9.1
7/19/2021 8:30:00 AM 0 32 0 7.94 3.25 9.19
7/19/2021 8:45:00 AM 0 32 0 8.02 3.22 9.34
7/19/2021 9:00:00 AM 0 32 0 8.07 3.3 9.36
7/19/2021 9:15:00 AM 0 32 0 8.11 3.22 9.43
7/19/2021 9:30:00 AM 0 32 0 8.17 3.22 9.49
7/19/2021 9:45:00 AM 0 32 0 8.21 3.3 9.5
7/19/2021 10:00:00 AM 0 32 0 8.26 3.16 9.55
7/19/2021 10:15:00 AM 0 32 0 8.29 3.14 9.56
7/19/2021 10:30:00 AM 0 32 0 8.34 3.08 9.58
7/19/2021 10:45:00 AM 0 32 0 8.36 3.21 9.6
7/19/2021 11:00:00 AM 0 32 0 8.39 3.05 9.6
7/19/2021 11:15:00 AM 0 32 0 8.42 3.13 9.6
7/19/2021 11:30:00 AM 0 32 0 8.46 2.99 9.62
7/19/2021 11:45:00 AM 0 32 0 8.49 3.06 9.61
7/19/2021 12:00:00 PM 0 32 0 8.52 3 9.62
7/19/2021 12:15:00 PM 0 32 0 8.56 2.89 9.62
7/19/2021 12:30:00 PM 0 32 0 8.59 2.77 9.6
7/19/2021 12:45:00 PM 0 32 0 8.58 2.99 9.49
7/19/2021 1:00:00 PM 0 32 0 8.57 2.94 9.44
7/19/2021 1:15:00 PM 0 32 0 8.61 2.7 9.52
7/19/2021 1:30:00 PM 0 32 0 8.64 2.77 9.48
7/19/2021 1:45:00 PM 0 32 0 8.64 2.86 9.5
7/19/2021 2:00:00 PM 0 32 0 8.68 2.77 9.52
7/19/2021 2:15:00 PM 0 32 0 8.65 2.68 9.39
7/19/2021 2:30:00 PM 0 32 0 8.61 2.72 9.32
7/19/2021 2:45:00 PM 0 32 0 8.62 2.78 9.35
7/19/2021 3:00:00 PM 0 32 0 8.58 2.8 9.26
7/19/2021 3:15:00 PM 0 32 0 8.56 2.54 9.17
7/19/2021 3:30:00 PM 0 32 0 8.6 2.77 9.29
7/19/2021 3:45:00 PM 0 32 0 8.64 2.72 9.34
7/19/2021 4:00:00 PM 0 32 0 8.65 2.7 9.32
7/19/2021 4:15:00 PM 0 32 0 8.63 2.63 9.2
7/19/2021 4:30:00 PM 0 32 0 8.61 2.82 9.17
7/19/2021 4:45:00 PM 0 32 0 8.58 2.59 9.11
7/19/2021 5:00:00 PM 0 32 0 8.55 2.59 9.04
7/19/2021 5:15:00 PM 0 32 0 8.47 2.68 8.89
7/19/2021 5:30:00 PM 0 32 0 8.43 2.88 8.85
7/19/2021 5:45:00 PM 0 32 0 8.37 2.77 8.78
7/19/2021 6:00:00 PM 0 32 0 8.36 2.8 8.8
7/19/2021 6:15:00 PM 0 32 0 8.32 2.81 8.74
7/19/2021 6:30:00 PM 0 32 0 8.27 2.67 8.65
7/19/2021 6:45:00 PM 0 32 0 8.21 2.63 8.56
7/19/2021 7:00:00 PM 0 32 0 8.15 2.53 8.45
7/19/2021 7:15:00 PM 0 32 0 8.08 2.85 8.36
7/19/2021 7:30:00 PM 0 32 0 8.02 2.56 8.27
7/19/2021 7:45:00 PM 0 32 0 7.96 2.58 8.18
7/19/2021 8:00:00 PM 0 32 0 7.9 2.58 8.08
7/19/2021 8:15:00 PM 0 32 0 7.84 2.57 8
7/19/2021 8:30:00 PM 0 32 0 7.81 2.54 7.93
7/19/2021 8:45:00 PM 0 32 0 7.78 2.76 7.87
7/19/2021 9:00:00 PM 0 32 0 7.75 2.67 7.84
7/19/2021 9:15:00 PM 0 32 0 7.74 2.78 7.83
7/19/2021 9:30:00 PM 0 32 0 7.72 3.12 7.83
7/19/2021 9:45:00 PM 0 32 0 7.71 2.77 7.83
7/19/2021 10:00:00 PM 0 32 0 7.71 2.66 7.84
7/19/2021 10:15:00 PM 0 32 0 7.71 2.78 7.84
7/19/2021 10:30:00 PM 0 32 0 7.71 2.75 7.85
7/19/2021 10:45:00 PM 0 32 0 7.71 2.83 7.87
7/19/2021 11:00:00 PM 0 32 0 7.7 2.76 7.87
7/19/2021 11:15:00 PM 0 32 0 7.7 2.71 7.89
7/19/2021 11:30:00 PM 0 32 0 7.7 2.77 7.89
7/19/2021 11:45:00 PM 0 32 0 7.71 2.82 7.91
7/20/2021 12:00:00 AM 0 32 0 7.7 2.74 7.92
7/20/2021 12:15:00 AM 0 32 0 7.7 2.91 7.93
7/20/2021 12:30:00 AM 0 32 0 7.7 2.74 7.94
7/20/2021 12:45:00 AM 0 32 0 7.71 2.8 7.96
7/20/2021 1:00:00 AM 0 32 0 7.7 2.84 7.96
7/20/2021 1:15:00 AM 0 32 0 7.71 2.76 7.97
7/20/2021 1:30:00 AM 0 32 0 7.71 2.8 7.97
7/20/2021 1:45:00 AM 0 32 0 7.71 2.79 7.98
7/20/2021 2:00:00 AM 0 32 0 7.71 2.82 8
7/20/2021 2:15:00 AM 0 32 0 7.71 2.81 8
7/20/2021 2:30:00 AM 0 32 0 7.71 2.69 8.02
7/20/2021 2:45:00 AM 0 32 0 7.7 2.84 8.01
7/20/2021 3:00:00 AM 0 32 0 7.71 2.78 8.04
7/20/2021 3:15:00 AM 0 32 0 7.71 2.73 8.04
7/20/2021 3:30:00 AM 0 32 0 7.7 2.79 8.06
7/20/2021 3:45:00 AM 0 32 0 7.7 2.87 8.05
7/20/2021 4:00:00 AM 0 32 0 7.7 2.78 8.07
7/20/2021 4:15:00 AM 0 32 0 7.7 2.79 8.07
7/20/2021 4:30:00 AM 0 32 0 7.7 2.66 8.08
7/20/2021 4:45:00 AM 0 32 0 7.7 2.88 8.08
7/20/2021 5:00:00 AM 0 32 0 7.7 2.77 8.11
7/20/2021 5:15:00 AM 0 32 0 7.7 2.93 8.11
7/20/2021 5:30:00 AM 0 32 0 7.69 3.01 8.12
7/20/2021 5:45:00 AM 0 32 0 7.7 2.77 8.13
7/20/2021 6:00:00 AM 0 32 0 7.7 2.84 8.16
7/20/2021 6:15:00 AM 0 32 0 7.71 2.61 8.22
7/20/2021 6:30:00 AM 0 32 0 7.73 2.67 8.29
7/20/2021 6:45:00 AM 0 32 0 7.75 2.63 8.38
7/20/2021 7:00:00 AM 0 32 0 7.78 2.55 8.48
7/20/2021 7:15:00 AM 0 32 0 7.81 2.57 8.59
7/20/2021 7:30:00 AM 0 32 0 7.84 2.51 8.71
7/20/2021 7:45:00 AM 0 32 0 7.87 2.43 8.84
7/20/2021 8:00:00 AM 0 32 0 7.92 2.4 8.97
7/20/2021 8:15:00 AM 0 32 0 7.97 2.54 9.09
7/20/2021 8:30:00 AM 0 32 0 8 2.45 9.11
7/20/2021 8:45:00 AM 0 32 0 8.07 2.4 9.25
7/20/2021 9:00:00 AM 0 32 0 8.13 2.35 9.34
7/20/2021 9:15:00 AM 0 32 0 8.2 2.39 9.47
7/20/2021 9:30:00 AM 0 32 0 8.27 2.36 9.57
7/20/2021 9:45:00 AM 0 32 0 8.34 2.55 9.66
7/20/2021 10:00:00 AM 0 32 0 8.41 2.33 9.72
7/20/2021 10:15:00 AM 0 32 0 8.46 2.32 9.78
7/20/2021 10:30:00 AM 0 32 0 8.52 2.31 9.81
7/20/2021 10:45:00 AM 0 32 0 8.57 2.38 9.85
7/20/2021 11:00:00 AM 0 32 0 8.62 2.28 9.88
7/20/2021 11:15:00 AM 0 32 0 8.66 2.37 9.9
7/20/2021 11:30:00 AM 0 32 0 8.7 2.24 9.9
7/20/2021 11:45:00 AM 0 32 0 8.72 2.25 9.9
7/20/2021 12:00:00 PM 0 32 0 8.77 2.16 9.9
7/20/2021 12:15:00 PM 0 32 0 8.79 2.25 9.91
7/20/2021 12:30:00 PM 0 32 0 8.81 2.23 9.89
7/20/2021 12:45:00 PM 0 32 0 8.84 2.22 9.88
7/20/2021 1:00:00 PM 21.28 70.304 0.202 8.61 1.55 10.84
7/20/2021 1:15:00 PM 21.47 70.646 0.202 8.64 1.66 10.86
7/20/2021 1:30:00 PM 21.67 71.006 0.202 8.66 1.56 10.84
7/20/2021 1:45:00 PM 21.83 71.294 0.202 8.65 1.45 10.8
7/20/2021 2:00:00 PM 21.98 71.564 0.202 8.67 1.58 10.79
7/20/2021 2:15:00 PM 22.12 71.816 0.202 8.67 1.55 10.75
7/20/2021 2:30:00 PM 22.24 72.032 0.202 8.68 1.51 10.71
7/20/2021 2:45:00 PM 22.37 72.266 0.202 8.68 1.49 10.69
7/20/2021 3:00:00 PM 22.45 72.41 0.202 8.68 1.58 10.62
7/20/2021 3:15:00 PM 22.54 72.57201 0.202 8.68 1.6 10.59
7/20/2021 3:30:00 PM 22.65 72.77 0.202 8.67 1.52 10.54
7/20/2021 3:45:00 PM 22.74 72.932 0.202 8.67 1.57 10.51
7/20/2021 4:00:00 PM 22.77 72.986 0.202 8.66 1.53 10.44
7/20/2021 4:15:00 PM 22.83 73.094 0.202 8.66 1.64 10.38
7/20/2021 4:30:00 PM 22.85 73.13 0.203 8.65 1.58 10.33
7/20/2021 4:45:00 PM 22.81 73.058 0.203 8.62 1.67 10.25
7/20/2021 5:00:00 PM 22.77 72.986 0.203 8.6 1.66 10.16
7/20/2021 5:15:00 PM 22.73 72.914 0.204 8.56 1.71 10.1
7/20/2021 5:30:00 PM 22.68 72.824 0.204 8.52 1.57 10
7/20/2021 5:45:00 PM 22.59 72.662 0.204 8.47 1.61 9.9
7/20/2021 6:00:00 PM 22.5 72.5 0.205 8.42 1.63 9.78
7/20/2021 6:15:00 PM 22.41 72.338 0.205 8.36 1.59 9.63
7/20/2021 6:30:00 PM 22.33 72.194 0.206 8.28 1.51 9.5
7/20/2021 6:45:00 PM 22.22 71.996 0.206 8.19 1.57 9.32
7/20/2021 7:00:00 PM 22.09 71.762 0.207 8.07 1.62 9.07
7/20/2021 7:15:00 PM 21.94 71.492 0.208 7.95 1.52 8.82
7/20/2021 7:30:00 PM 21.83 71.294 0.208 7.88 1.51 8.64
7/20/2021 7:45:00 PM 21.66 70.988 0.207 7.82 1.66 8.59
7/20/2021 8:00:00 PM 21.41 70.538 0.204 7.75 1.98 8.51
7/20/2021 8:15:00 PM 21.19 70.142 0.2 7.74 2.77 8.57
7/20/2021 8:30:00 PM 21.08 69.944 0.197 7.69 7.48 8.53
7/20/2021 8:45:00 PM 21.05 69.89 0.184 7.65 12.77 8.46
7/20/2021 9:00:00 PM 20.86 69.548 0.182 7.6 14.39 8.44
7/20/2021 9:15:00 PM 20.5 68.9 0.193 7.64 22.41 8.57
7/20/2021 9:30:00 PM 19.99 67.982 0.19 7.64 101.67 8.76
7/20/2021 9:45:00 PM 19.68 67.424 0.18 7.62 109.24 8.88
7/20/2021 10:00:00 PM 19.43 66.974 0.176 7.66 121.97 9.01
7/20/2021 10:15:00 PM 19.34 66.812 0.174 7.66 100.87 9.05
7/20/2021 10:30:00 PM 19.37 66.866 0.173 7.66 65.9 9.04
7/20/2021 10:45:00 PM 19.29 66.722 0.167 7.76 60.45 9.07
7/20/2021 11:00:00 PM 19.15 66.47 0.164 7.81 71.69 9.11
7/20/2021 11:15:00 PM 19.06 66.308 0.165 7.79 69.35 9.14
7/20/2021 11:30:00 PM 18.99 66.182 0.164 7.74 64.06 9.14
7/20/2021 11:45:00 PM 18.9 66.02 0.162 7.71 61.8 9.15
7/21/2021 12:00:00 AM 18.87 65.966 0.163 7.71 55.86 9.16
7/21/2021 12:15:00 AM 18.87 65.966 0.163 7.71 53.66 9.16
7/21/2021 12:30:00 AM 18.86 65.948 0.162 7.7 47.13 9.15
7/21/2021 12:45:00 AM 18.84 65.912 0.162 7.7 40.35 9.15
7/21/2021 1:00:00 AM 18.8 65.84 0.162 7.7 33.94 9.15
7/21/2021 1:15:00 AM 18.76 65.768 0.161 7.69 29.28 9.15
7/21/2021 1:30:00 AM 18.73 65.714 0.161 7.68 27.12 9.16
7/21/2021 1:45:00 AM 18.7 65.66 0.16 7.68 23.73 9.16
7/21/2021 2:00:00 AM 18.68 65.624 0.16 7.66 21.98 9.16
7/21/2021 2:15:00 AM 18.65 65.57 0.159 7.65 20.42 9.16
7/21/2021 2:30:00 AM 18.62 65.516 0.159 7.65 18.88 9.16
7/21/2021 2:45:00 AM 18.6 65.48 0.159 7.65 16.98 9.15
7/21/2021 3:00:00 AM 18.58 65.444 0.16 7.64 15.12 9.15
7/21/2021 3:15:00 AM 18.56 65.408 0.16 7.64 13.94 9.15
7/21/2021 3:30:00 AM 18.52 65.336 0.16 7.64 13.47 9.15
7/21/2021 3:45:00 AM 18.47 65.246 0.16 7.64 12.41 9.16
7/21/2021 4:00:00 AM 18.42 65.156 0.159 7.63 12.33 9.16
7/21/2021 4:15:00 AM 18.37 65.066 0.159 7.63 11.28 9.16
7/21/2021 4:30:00 AM 18.33 64.994 0.159 7.63 10.98 9.17
7/21/2021 4:45:00 AM 18.29 64.922 0.159 7.63 10.71 9.17
7/21/2021 5:00:00 AM 18.25 64.85 0.159 7.65 11.87 9.18
7/21/2021 5:15:00 AM 18.22 64.796 0.16 7.64 9.91 9.18
7/21/2021 5:30:00 AM 18.19 64.742 0.16 7.63 9.86 9.18
7/21/2021 5:45:00 AM 18.16 64.688 0.161 7.64 9.43 9.19
7/21/2021 6:00:00 AM 18.13 64.634 0.161 7.63 9.3 9.2
7/21/2021 6:15:00 AM 18.11 64.598 0.162 7.64 8.64 9.22
7/21/2021 6:30:00 AM 18.09 64.562 0.163 7.65 8.26 9.26
7/21/2021 6:45:00 AM 18.07 64.526 0.163 7.65 7.8 9.29
7/21/2021 7:00:00 AM 18.07 64.526 0.164 7.67 7.37 9.34
7/21/2021 7:15:00 AM 18.06 64.508 0.164 7.67 6.88 9.33
7/21/2021 7:30:00 AM 18.04 64.472 0.165 7.68 6.49 9.34
7/21/2021 7:45:00 AM 18.02 64.436 0.165 7.68 6.07 9.32
7/21/2021 8:00:00 AM 18.03 64.454 0.166 7.7 5.63 9.44
7/21/2021 8:15:00 AM 18.01 64.418 0.166 7.71 5.61 9.45
7/21/2021 8:30:00 AM 18.01 64.418 0.167 7.73 5.41 9.52
7/21/2021 8:45:00 AM 18 64.4 0.167 7.74 5.15 9.52
7/21/2021 9:00:00 AM 17.99 64.382 0.168 7.74 4.77 9.53
7/21/2021 9:15:00 AM 18 64.4 0.168 7.78 4.74 9.68
7/21/2021 9:30:00 AM 18.02 64.436 0.168 7.81 4.48 9.77
7/21/2021 9:45:00 AM 18.04 64.472 0.169 7.84 4.45 9.84
7/21/2021 10:00:00 AM 18.05 64.49 0.169 7.86 4.16 9.88
7/21/2021 10:15:00 AM 18.04 64.472 0.17 7.85 4.2 9.82
7/21/2021 10:30:00 AM 18.07 64.526 0.17 7.88 3.88 9.91
7/21/2021 10:45:00 AM 18.07 64.526 0.17 7.88 3.87 9.91
7/21/2021 11:00:00 AM 18.07 64.526 0.171 7.88 3.57 9.85
7/21/2021 11:15:00 AM 18.09 64.562 0.171 7.9 3.49 9.93
7/21/2021 11:30:00 AM 18.17 64.706 0.171 7.97 3.46 10.15
7/21/2021 11:45:00 AM 18.17 64.706 0.171 7.99 3.42 10.15
7/21/2021 12:00:00 PM 18.25 64.85 0.172 8.04 3.36 10.26
7/21/2021 12:15:00 PM 18.25 64.85 0.172 8.03 3.24 10.23
7/21/2021 12:30:00 PM 18.39 65.102 0.172 8.1 3.21 10.38
7/21/2021 12:45:00 PM 18.53 65.354 0.172 8.17 3.08 10.54
7/21/2021 1:00:00 PM 18.66 65.588 0.172 8.24 3.14 10.61
7/21/2021 1:15:00 PM 18.96 66.128 0.172 8.3 3.04 10.7
7/21/2021 1:30:00 PM -99999.99 -179968 -99999.99 -99999.99 -99999.99 -99999.99
7/21/2021 1:45:00 PM 19.3 66.74 0.173 8.35 2.95 10.6
7/21/2021 2:00:00 PM 19.52 67.136 0.173 8.37 2.79 10.56
7/21/2021 2:15:00 PM 19.49 67.082 0.173 8.33 2.89 10.36
7/21/2021 2:30:00 PM 19.58 67.244 0.173 8.36 2.77 10.43
7/21/2021 2:45:00 PM 19.61 67.298 0.174 8.38 2.74 10.48
7/21/2021 3:00:00 PM 19.7 67.46 0.174 8.41 2.73 10.51
7/21/2021 3:15:00 PM 19.92 67.856 0.174 8.44 2.66 10.55
7/21/2021 3:30:00 PM 19.71 67.478 0.174 8.37 2.67 10.31
7/21/2021 3:45:00 PM 19.75 67.55 0.175 8.37 2.66 10.34
7/21/2021 4:00:00 PM 19.81 67.658 0.175 8.4 2.68 10.43
7/21/2021 4:15:00 PM 19.75 67.55 0.175 8.36 2.59 10.31
7/21/2021 4:30:00 PM 19.88 67.784 0.175 8.39 2.61 10.4
7/21/2021 4:45:00 PM 19.91 67.838 0.176 8.42 2.59 10.48
7/21/2021 5:00:00 PM 19.88 67.784 0.176 8.38 2.75 10.34
7/21/2021 5:15:00 PM 19.95 67.91 0.176 8.38 2.57 10.33
7/21/2021 5:30:00 PM 19.93 67.874 0.177 8.37 2.57 10.3
7/21/2021 5:45:00 PM 19.93 67.874 0.177 8.35 2.64 10.25
7/21/2021 6:00:00 PM 19.87 67.766 0.177 8.29 2.59 10.08
7/21/2021 6:15:00 PM 19.77 67.586 0.178 8.23 2.49 10
7/21/2021 6:30:00 PM 19.65 67.37 0.178 8.15 2.53 9.84
7/21/2021 6:45:00 PM 19.51 67.118 0.179 8.08 2.6 9.75
7/21/2021 7:00:00 PM 19.37 66.866 0.18 8.02 2.46 9.64
7/21/2021 7:15:00 PM 19.23 66.614 0.18 7.94 2.51 9.51
7/21/2021 7:30:00 PM 19.09 66.362 0.181 7.89 2.68 9.43
7/21/2021 7:45:00 PM 18.96 66.128 0.181 7.85 2.53 9.38
7/21/2021 8:00:00 PM 18.83 65.894 0.181 7.82 2.45 9.33
7/21/2021 8:15:00 PM 18.7 65.66 0.181 7.79 2.47 9.28
7/21/2021 8:30:00 PM 18.58 65.444 0.182 7.76 2.56 9.23
7/21/2021 8:45:00 PM 18.46 65.228 0.182 7.74 2.67 9.19
7/21/2021 9:00:00 PM 18.34 65.012 0.183 7.72 2.59 9.17
7/21/2021 9:15:00 PM 18.23 64.814 0.183 7.71 2.59 9.16
7/21/2021 9:30:00 PM 18.12 64.616 0.183 7.69 2.69 9.17
7/21/2021 9:45:00 PM 18.01 64.418 0.184 7.69 2.56 9.18
7/21/2021 10:00:00 PM 17.91 64.238 0.184 7.68 2.72 9.2
7/21/2021 10:15:00 PM 17.81 64.058 0.185 7.68 2.66 9.21
7/21/2021 10:30:00 PM 17.71 63.878 0.185 7.67 2.66 9.22
7/21/2021 10:45:00 PM 17.62 63.716 0.185 7.67 2.83 9.24
7/21/2021 11:00:00 PM 17.53 63.554 0.186 7.67 2.63 9.26
7/21/2021 11:15:00 PM 17.44 63.392 0.186 7.67 2.62 9.29
7/21/2021 11:30:00 PM 17.36 63.248 0.186 7.64 2.6 9.29
7/21/2021 11:45:00 PM 17.27 63.086 0.186 7.65 2.52 9.31
7/22/2021 12:00:00 AM 17.18 62.924 0.187 7.65 2.58 9.32
7/22/2021 12:15:00 AM 17.1 62.78 0.187 7.65 2.44 9.34
7/22/2021 12:30:00 AM 17.02 62.636 0.187 7.65 2.66 9.36
7/22/2021 12:45:00 AM 16.94 62.492 0.187 7.65 2.8 9.38
7/22/2021 1:00:00 AM 16.86 62.348 0.188 7.65 2.5 9.4
7/22/2021 1:15:00 AM 16.78 62.204 0.188 7.65 2.78 9.41
7/22/2021 1:30:00 AM 16.71 62.078 0.188 7.65 2.59 9.43
7/22/2021 1:45:00 AM 16.63 61.934 0.188 7.64 2.52 9.44
7/22/2021 2:00:00 AM 16.56 61.808 0.189 7.61 2.56 9.46
7/22/2021 2:15:00 AM 16.48 61.664 0.189 7.64 2.66 9.48
7/22/2021 2:30:00 AM 16.41 61.538 0.189 7.64 2.58 9.49
7/22/2021 2:45:00 AM 16.34 61.412 0.189 7.64 2.43 9.51
7/22/2021 3:00:00 AM 16.27 61.286 0.19 7.64 2.49 9.53
7/22/2021 3:15:00 AM 16.19 61.142 0.19 7.64 2.47 9.54
7/22/2021 3:30:00 AM 16.12 61.016 0.19 7.65 2.5 9.56
7/22/2021 3:45:00 AM 16.05 60.89 0.19 7.64 2.52 9.57
7/22/2021 4:00:00 AM 15.98 60.764 0.19 7.65 2.44 9.59
7/22/2021 4:15:00 AM 15.91 60.638 0.191 7.65 2.39 9.6
7/22/2021 4:30:00 AM 15.84 60.512 0.191 7.64 2.46 9.62
7/22/2021 4:45:00 AM 15.77 60.386 0.191 7.64 2.47 9.64
7/22/2021 5:00:00 AM 15.71 60.278 0.191 7.65 2.51 9.66
7/22/2021 5:15:00 AM 15.64 60.152 0.191 7.64 2.53 9.67
7/22/2021 5:30:00 AM 15.58 60.044 0.191 7.64 2.53 9.68
7/22/2021 5:45:00 AM 15.51 59.918 0.192 7.65 2.48 9.71
7/22/2021 6:00:00 AM 15.46 59.828 0.192 7.65 2.43 9.75
7/22/2021 6:15:00 AM 15.41 59.738 0.192 7.66 2.31 9.81
7/22/2021 6:30:00 AM 15.36 59.648 0.192 7.68 2.3 9.91
7/22/2021 6:45:00 AM 15.33 59.594 0.192 7.7 2.21 10.01
7/22/2021 7:00:00 AM 15.3 59.54 0.192 7.73 2.19 10.14
7/22/2021 7:15:00 AM 15.3 59.54 0.192 7.76 2.21 10.26
7/22/2021 7:30:00 AM 15.3 59.54 0.192 7.8 2.16 10.39
7/22/2021 7:45:00 AM 15.34 59.612 0.192 7.85 2.03 10.56
7/22/2021 8:00:00 AM 15.39 59.702 0.192 7.9 1.95 10.7
7/22/2021 8:15:00 AM 15.47 59.846 0.192 7.94 1.89 10.81
7/22/2021 8:30:00 AM 15.57 60.026 0.192 7.99 1.8 10.93
7/22/2021 8:45:00 AM 15.69 60.242 0.192 8.05 1.87 11.02
7/22/2021 9:00:00 AM 15.81 60.458 0.192 8.1 1.85 11.08
7/22/2021 9:15:00 AM 15.97 60.746 0.192 8.15 1.74 11.15
7/22/2021 9:30:00 AM 16.15 61.07 0.192 8.2 1.81 11.21
7/22/2021 9:45:00 AM 16.36 61.448 0.192 8.24 1.78 11.27
7/22/2021 10:00:00 AM 16.52 61.736 0.192 8.28 1.83 11.27
7/22/2021 10:15:00 AM 16.72 62.096 0.192 8.33 1.68 11.3
7/22/2021 10:30:00 AM 16.89 62.402 0.192 8.36 1.79 11.31
7/22/2021 10:45:00 AM 17.08 62.744 0.192 8.39 1.71 11.3
7/22/2021 11:00:00 AM 17.37 63.266 0.192 8.45 1.74 11.37
7/22/2021 11:15:00 AM 17.54 63.572 0.192 8.48 1.76 11.34
7/22/2021 11:30:00 AM 17.76 63.968 0.192 8.51 1.81 11.36
7/22/2021 11:45:00 AM 17.92 64.256 0.192 8.52 1.89 11.3
7/22/2021 12:00:00 PM 18.05 64.49 0.191 8.54 1.71 11.27
7/22/2021 12:15:00 PM 18.14 64.652 0.192 8.52 1.6 11.11
7/22/2021 12:30:00 PM 18.35 65.03 0.192 8.56 1.59 11.22
7/22/2021 12:45:00 PM 18.3 64.94 0.192 8.51 1.6 11.02
7/22/2021 1:00:00 PM 18.64 65.552 0.192 8.57 1.59 11.18
7/22/2021 1:15:00 PM 18.71 65.67799 0.192 8.59 1.74 11.21
7/22/2021 1:30:00 PM 18.79 65.82201 0.192 8.59 1.55 11.1
7/22/2021 1:45:00 PM 18.92 66.056 0.192 8.62 1.67 11.14
7/22/2021 2:00:00 PM 18.93 66.074 0.192 8.58 1.65 10.91
7/22/2021 2:15:00 PM 18.98 66.164 0.192 8.57 1.71 10.86
7/22/2021 2:30:00 PM 18.89 66.002 0.192 8.51 1.46 10.71
7/22/2021 2:45:00 PM 18.93 66.074 0.192 8.53 1.62 10.8
7/22/2021 3:00:00 PM 19.04 66.272 0.192 8.55 1.62 10.85
7/22/2021 3:15:00 PM 19.37 66.866 0.192 8.62 1.64 11.07
7/22/2021 3:30:00 PM 19.39 66.902 0.192 8.64 1.65 11.03
7/22/2021 3:45:00 PM 19.42 66.956 0.192 8.65 1.7 11.01
7/22/2021 4:00:00 PM 19.58 67.244 0.193 8.66 1.69 11.06
7/22/2021 4:15:00 PM 19.46 67.028 0.193 8.64 1.61 10.93
7/22/2021 4:30:00 PM 19.47 67.046 0.193 8.64 1.58 10.9
7/22/2021 4:45:00 PM 19.55 67.19 0.193 8.65 1.58 10.94
7/22/2021 5:00:00 PM 19.51 67.118 0.194 8.62 1.57 10.78
7/22/2021 5:15:00 PM 19.56 67.208 0.194 8.62 1.55 10.79
7/22/2021 5:30:00 PM 19.42 66.956 0.194 8.55 1.56 10.58
7/22/2021 5:45:00 PM 19.36 66.848 0.195 8.49 1.63 10.41
7/22/2021 6:00:00 PM 19.3 66.74 0.195 8.43 1.57 10.32
7/22/2021 6:15:00 PM 19.22 66.596 0.196 8.36 1.54 10.22
7/22/2021 6:30:00 PM 19.13 66.434 0.196 8.27 1.59 10.04
7/22/2021 6:45:00 PM 19.06 66.308 0.196 8.24 1.55 10.03
7/22/2021 7:00:00 PM 18.96 66.128 0.197 8.16 1.48 9.9
7/22/2021 7:15:00 PM 18.88 65.984 0.197 8.09 1.48 9.77
7/22/2021 7:30:00 PM 18.79 65.82201 0.198 8.05 1.48 9.73
7/22/2021 7:45:00 PM 18.67 65.606 0.198 7.98 1.55 9.61
7/22/2021 8:00:00 PM 18.55 65.39 0.199 7.92 1.55 9.49
7/22/2021 8:15:00 PM 18.42 65.156 0.199 7.86 1.55 9.38
7/22/2021 8:30:00 PM 18.3 64.94 0.2 7.82 1.57 9.28
7/22/2021 8:45:00 PM 18.18 64.724 0.2 7.78 1.62 9.21
7/22/2021 9:00:00 PM 18.06 64.508 0.201 7.76 1.65 9.16
7/22/2021 9:15:00 PM 17.93 64.274 0.201 7.74 1.69 9.15
7/22/2021 9:30:00 PM 17.82 64.076 0.202 7.72 1.73 9.15
7/22/2021 9:45:00 PM 17.71 63.878 0.202 7.71 1.7 9.16
7/22/2021 10:00:00 PM 17.59 63.662 0.202 7.7 1.68 9.17
7/22/2021 10:15:00 PM 17.5 63.5 0.203 7.7 1.64 9.2
7/22/2021 10:30:00 PM 17.41 63.338 0.203 7.69 1.71 9.21
7/22/2021 10:45:00 PM 17.32 63.176 0.203 7.69 1.63 9.23
7/22/2021 11:00:00 PM 17.24 63.032 0.204 7.68 1.55 9.24
7/22/2021 11:15:00 PM 17.17 62.906 0.204 7.68 1.75 9.25
7/22/2021 11:30:00 PM 17.1 62.78 0.204 7.68 1.73 9.26
7/22/2021 11:45:00 PM 17.01 62.618 0.205 7.67 1.71 9.28
7/23/2021 12:00:00 AM 16.93 62.474 0.205 7.67 1.71 9.3
7/23/2021 12:15:00 AM 16.84 62.312 0.205 7.67 1.71 9.31
7/23/2021 12:30:00 AM 16.76 62.168 0.206 7.67 1.79 9.33
7/23/2021 12:45:00 AM 16.68 62.024 0.206 7.67 1.64 9.34
7/23/2021 1:00:00 AM 16.6 61.88 0.206 7.67 1.75 9.36
7/23/2021 1:15:00 AM 16.52 61.736 0.206 7.67 1.65 9.38
7/23/2021 1:30:00 AM 16.45 61.61 0.207 7.66 1.72 9.39
7/23/2021 1:45:00 AM 16.37 61.466 0.207 7.66 1.69 9.41
7/23/2021 2:00:00 AM 16.29 61.322 0.207 7.66 1.66 9.43
7/23/2021 2:15:00 AM 16.21 61.178 0.207 7.66 1.66 9.45
7/23/2021 2:30:00 AM 16.13 61.034 0.207 7.67 1.76 9.45
7/23/2021 2:45:00 AM 16.06 60.908 0.207 7.67 1.71 9.48
7/23/2021 3:00:00 AM 15.98 60.764 0.207 7.66 1.68 9.49
7/23/2021 3:15:00 AM 15.9 60.62 0.207 7.66 1.82 9.51
7/23/2021 3:30:00 AM 15.83 60.494 0.208 7.66 1.73 9.54
7/23/2021 3:45:00 AM 15.76 60.368 0.208 7.66 1.7 9.55
7/23/2021 4:00:00 AM 15.69 60.242 0.208 7.66 1.71 9.57
7/23/2021 4:15:00 AM 15.61 60.098 0.208 7.66 1.81 9.58
7/23/2021 4:30:00 AM 15.54 59.972 0.208 7.66 1.77 9.6
7/23/2021 4:45:00 AM 15.47 59.846 0.208 7.66 1.74 9.62
7/23/2021 5:00:00 AM 15.4 59.72 0.208 7.66 1.77 9.63
7/23/2021 5:15:00 AM 15.34 59.612 0.208 7.66 1.81 9.65
7/23/2021 5:30:00 AM 15.28 59.504 0.208 7.65 1.73 9.67
7/23/2021 5:45:00 AM 15.22 59.396 0.208 7.65 1.72 9.7
7/23/2021 6:00:00 AM 15.15 59.27 0.208 7.66 1.68 9.76
7/23/2021 6:15:00 AM 15.1 59.18 0.208 7.67 1.71 9.84
7/23/2021 6:30:00 AM 15.05 59.09 0.208 7.69 1.59 9.96
7/23/2021 6:45:00 AM 15.01 59.018 0.208 7.72 1.55 10.08
7/23/2021 7:00:00 AM 14.99 58.982 0.208 7.75 1.52 10.2
7/23/2021 7:15:00 AM 14.98 58.964 0.208 7.78 1.56 10.36
7/23/2021 7:30:00 AM 15 59 0.208 7.82 1.41 10.51
7/23/2021 7:45:00 AM 15.05 59.09 0.208 7.87 1.41 10.68
7/23/2021 8:00:00 AM 15.11 59.198 0.208 7.92 1.48 10.82
7/23/2021 8:15:00 AM 15.2 59.36 0.208 7.97 1.38 10.96
7/23/2021 8:30:00 AM 15.3 59.54 0.208 8.03 1.49 11.08
7/23/2021 8:45:00 AM 15.43 59.774 0.208 8.09 1.4 11.18
7/23/2021 9:00:00 AM 15.58 60.044 0.208 8.15 1.36 11.29
7/23/2021 9:15:00 AM 15.76 60.368 0.208 8.21 1.45 11.39
7/23/2021 9:30:00 AM 15.97 60.746 0.208 8.26 1.43 11.46
7/23/2021 9:45:00 AM 16.19 61.142 0.208 8.31 1.47 11.51
7/23/2021 10:00:00 AM 16.41 61.538 0.208 8.35 1.39 11.54
7/23/2021 10:15:00 AM 16.67 62.006 0.207 8.4 1.36 11.57
7/23/2021 10:30:00 AM 16.9 62.42 0.207 8.42 1.33 11.49
7/23/2021 10:45:00 AM 17.04 62.672 0.206 8.44 1.3 11.5
7/23/2021 11:00:00 AM 17.41 63.338 0.206 8.5 1.43 11.58
7/23/2021 11:15:00 AM 17.5 63.5 0.206 8.48 1.34 11.4
7/23/2021 11:30:00 AM 17.79 64.022 0.206 8.53 1.33 11.44
7/23/2021 11:45:00 AM 18.16 64.688 0.206 8.59 1.25 11.55
7/23/2021 12:00:00 PM 18.47 65.246 0.205 8.63 1.23 11.57
7/23/2021 12:15:00 PM 18.67 65.606 0.205 8.66 1.31 11.56
7/23/2021 12:30:00 PM 18.94 66.092 0.205 8.67 1.33 11.5
7/23/2021 12:45:00 PM 19.2 66.56 0.205 8.7 1.41 11.53
7/23/2021 1:00:00 PM 19.45 67.01 0.206 8.72 1.38 11.5
7/23/2021 1:15:00 PM 19.66 67.388 0.206 8.75 1.32 11.5
7/23/2021 1:30:00 PM 19.87 67.766 0.206 8.76 1.26 11.48
7/23/2021 1:45:00 PM 20 68 0.206 8.77 1.36 11.39
7/23/2021 2:00:00 PM 20.09 68.162 0.206 8.78 1.3 11.31
7/23/2021 2:15:00 PM 20.22 68.396 0.206 8.78 1.36 11.26
7/23/2021 2:30:00 PM 20.41 68.738 0.206 8.79 1.38 11.21
7/23/2021 2:45:00 PM 20.61 69.098 0.206 8.8 1.28 11.28
7/23/2021 3:00:00 PM 20.63 69.134 0.206 8.8 1.26 11.14
7/23/2021 3:15:00 PM 21.03 69.854 0.206 8.84 1.34 11.27
7/23/2021 3:30:00 PM 21.11 69.998 0.206 8.81 1.18 11.05
7/23/2021 3:45:00 PM 21.28 70.304 0.206 8.84 1.26 11.08
7/23/2021 4:00:00 PM 21.39 70.502 0.206 8.83 1.31 11.06
7/23/2021 4:15:00 PM 21.49 70.682 0.206 8.83 1.39 11.02
7/23/2021 4:30:00 PM 21.55 70.79 0.206 8.83 1.25 10.96
7/23/2021 4:45:00 PM 21.56 70.808 0.207 8.82 1.32 10.91
7/23/2021 5:00:00 PM 21.59 70.862 0.207 8.81 1.29 10.85
7/23/2021 5:15:00 PM 21.51 70.718 0.207 8.78 1.38 10.72
7/23/2021 5:30:00 PM 21.39 70.502 0.208 8.73 1.32 10.58
7/23/2021 5:45:00 PM 21.26 70.268 0.208 8.68 1.33 10.46
7/23/2021 6:00:00 PM 21.09 69.962 0.209 8.61 1.24 10.31
7/23/2021 6:15:00 PM 20.9 69.62 0.209 8.54 1.23 10.16
7/23/2021 6:30:00 PM 20.71 69.278 0.21 8.45 1.27 10.01
7/23/2021 6:45:00 PM 20.56 69.008 0.21 8.36 1.3 9.86
7/23/2021 7:00:00 PM 20.38 68.684 0.211 8.25 1.24 9.67
7/23/2021 7:15:00 PM 20.21 68.378 0.212 8.12 1.17 9.45
7/23/2021 7:30:00 PM 20.04 68.07201 0.212 8.02 1.23 9.3
7/23/2021 7:45:00 PM 19.88 67.784 0.213 7.95 1.29 9.19
7/23/2021 8:00:00 PM 19.73 67.514 0.213 7.9 1.18 9.1
7/23/2021 8:15:00 PM 19.58 67.244 0.213 7.86 1.31 9.01
7/23/2021 8:30:00 PM 19.43 66.974 0.214 7.82 1.27 8.93
7/23/2021 8:45:00 PM 19.26 66.668 0.214 7.78 1.25 8.86
7/23/2021 9:00:00 PM 19.1 66.38 0.215 7.76 1.23 8.82
7/23/2021 9:15:00 PM 18.92 66.056 0.215 7.73 1.33 8.81
7/23/2021 9:30:00 PM 18.76 65.768 0.216 7.72 1.3 8.82
7/23/2021 9:45:00 PM 18.6 65.48 0.216 7.72 1.4 8.84
7/23/2021 10:00:00 PM 18.44 65.192 0.216 7.7 1.32 8.87
7/23/2021 10:15:00 PM 18.29 64.922 0.217 7.7 1.43 8.89
7/23/2021 10:30:00 PM 18.14 64.652 0.217 7.7 1.4 8.92
7/23/2021 10:45:00 PM 18 64.4 0.218 7.69 1.5 8.95
7/23/2021 11:00:00 PM 17.86 64.148 0.218 7.69 1.55 8.98
7/23/2021 11:15:00 PM 17.73 63.914 0.218 7.69 1.38 9
7/23/2021 11:30:00 PM 17.6 63.68 0.218 7.68 1.49 9.02
7/23/2021 11:45:00 PM 17.48 63.464 0.219 7.69 1.38 9.06
7/24/2021 12:00:00 AM 17.36 63.248 0.219 7.68 1.4 9.08
7/24/2021 12:15:00 AM 17.24 63.032 0.219 7.68 1.43 9.11
7/24/2021 12:30:00 AM 17.13 62.834 0.22